
Distance (Route):
Temperature : 0°C
Humidity : 0%
Pressure : 0hPa| Receiver | Date | Latitude | Longitude | Direction | Speed | Altitude | Climb | Temperature | Humidity | Pressure | Voltage | Killtimer | Uptime | BKT | XDATA |
|---|---|---|---|---|---|---|---|---|---|---|---|---|---|---|---|
| RDZBGO | 2026-09-06 01:32:23 | 41.78745 | 8.73193 | 101° | 27km/h | 16593m | -11.2m/s | 0°C | 0% | 0hPa | 0V | 00:00:00 | 00:00:00 | 00:00:00 | |
| RDZBGO | 2026-09-06 01:32:03 | 41.78778 | 8.72981 | 108° | 38km/h | 16818m | -11.4m/s | 0°C | 0% | 0hPa | 0V | 00:00:00 | 00:00:00 | 00:00:00 | |
| RDZBGO | 2026-09-06 01:31:41 | 41.78841 | 8.72745 | 96° | 33km/h | 17069m | -11.7m/s | 0°C | 0% | 0hPa | 0V | 00:00:00 | 00:00:00 | 00:00:00 | |
| RDZBGO | 2026-09-06 01:31:21 | 41.78895 | 8.72524 | 127° | 33km/h | 17304m | -11.7m/s | 0°C | 0% | 0hPa | 0V | 00:00:00 | 00:00:00 | 00:00:00 | |
| RDZBGO | 2026-09-06 01:31:00 | 41.78995 | 8.72358 | 135° | 24km/h | 17555m | -11.7m/s | 0°C | 0% | 0hPa | 0V | 00:00:00 | 00:00:00 | 00:00:00 | |
| RDZBGO | 2026-09-06 01:30:38 | 41.79066 | 8.72287 | 136° | 15km/h | 17826m | -12.4m/s | 0°C | 0% | 0hPa | 0V | 00:00:00 | 00:00:00 | 00:00:00 | |
| RDZBGO | 2026-09-06 01:30:16 | 41.79079 | 8.72188 | 101° | 18km/h | 18102m | -12.9m/s | 0°C | 0% | 0hPa | 0V | 00:00:00 | 00:00:00 | 00:00:00 | |
| RDZBGO | 2026-09-06 01:29:56 | 41.79096 | 8.72067 | 107° | 27km/h | 18359m | -13.1m/s | 0°C | 0% | 0hPa | 0V | 00:00:00 | 00:00:00 | 00:00:00 | |
| RDZBGO | 2026-09-06 01:29:34 | 41.79164 | 8.71910 | 149° | 15km/h | 18649m | -13.5m/s | 0°C | 0% | 0hPa | 0V | 00:00:00 | 00:00:00 | 00:00:00 | |
| RDZBGO | 2026-09-06 01:29:13 | 41.79154 | 8.71781 | 75° | 24km/h | 18937m | -14.1m/s | 0°C | 0% | 0hPa | 0V | 00:00:00 | 00:00:00 | 00:00:00 | |
| RDZBGO | 2026-09-06 01:28:53 | 41.79183 | 8.71714 | 225° | 9km/h | 19216m | -14.0m/s | 0°C | 0% | 0hPa | 0V | 00:00:00 | 00:00:00 | 00:00:00 | |
| RDZ2B | 2026-09-06 01:28:47 | 41.79186 | 8.71727 | 291° | 5km/h | 19301m | -14.7m/s | 0°C | 0% | 0hPa | 0V | 00:00:00 | 00:00:00 | 00:00:00 | |
| RDZ2B | 2026-09-06 01:28:15 | 41.79160 | 8.71637 | 109° | 11km/h | 19773m | -15.1m/s | 0°C | 0% | 0hPa | 0V | 00:00:00 | 00:00:00 | 00:00:00 | |
| RDZ2B | 2026-09-06 01:27:54 | 41.79166 | 8.71607 | 163° | 9km/h | 20092m | -14.8m/s | 0°C | 0% | 0hPa | 0V | 00:00:00 | 00:00:00 | 00:00:00 | |
| RDZ2B | 2026-09-06 01:27:32 | 41.79222 | 8.71552 | 124° | 5km/h | 20432m | -15.6m/s | 0°C | 0% | 0hPa | 0V | 00:00:00 | 00:00:00 | 00:00:00 | |
| IW2NTF | 2026-09-06 01:27:21 | 41.79258 | 8.71527 | 155° | 15km/h | 20652m | -15.9m/s | 0°C | 0% | 0hPa | 0V | 00:00:00 | 00:00:00 | 00:00:00 | |
| RDZ2B | 2026-09-06 01:27:11 | 41.79279 | 8.71514 | 160° | 9km/h | 20767m | -16.1m/s | 0°C | 0% | 0hPa | 0V | 00:00:00 | 00:00:00 | 00:00:00 | |
| RDZBGO | 2026-09-06 01:26:56 | 41.79299 | 8.71480 | 126° | 16km/h | 21012m | -16.3m/s | 0°C | 0% | 0hPa | 0V | 00:00:00 | 00:00:00 | 00:00:00 | |
| RDZ2B | 2026-09-06 01:26:48 | 41.79325 | 8.71469 | 207° | 15km/h | 21147m | -16.4m/s | 0°C | 0% | 0hPa | 0V | 00:00:00 | 00:00:00 | 00:00:00 | |
| RDZ2B | 2026-09-06 01:26:28 | 41.79311 | 8.71523 | 355° | 15km/h | 21491m | -17.4m/s | 0°C | 0% | 0hPa | 0V | 00:00:00 | 00:00:00 | 00:00:00 | |
| IW2NTF | 2026-09-06 01:26:09 | 41.79266 | 8.71468 | 189° | 16km/h | 21917m | -19.1m/s | 0°C | 0% | 0hPa | 0V | 00:00:00 | 00:00:00 | 00:00:00 | |
| RDZBGO | 2026-09-06 01:26:05 | 41.79262 | 8.71468 | 189° | 13km/h | 21899m | -18.9m/s | 0°C | 0% | 0hPa | 0V | 00:00:00 | 00:00:00 | 00:00:00 | |
| RDZBGO | 2026-09-06 01:25:44 | 41.79312 | 8.71501 | 268° | 4km/h | 22286m | -18.9m/s | 0°C | 0% | 0hPa | 0V | 00:00:00 | 00:00:00 | 00:00:00 | |
| RDZBGO | 2026-09-06 01:25:21 | 41.79339 | 8.71463 | 144° | 15km/h | 22722m | -20.7m/s | 0°C | 0% | 0hPa | 0V | 00:00:00 | 00:00:00 | 00:00:00 | |
| RDZ2B | 2026-09-06 01:25:14 | 41.79370 | 8.71448 | 167° | 22km/h | 22858m | -19.8m/s | 0°C | 0% | 0hPa | 0V | 00:00:00 | 00:00:00 | 00:00:00 | |
| RDZBGO | 2026-09-06 01:25:01 | 41.79433 | 8.71483 | 249° | 16km/h | 23116m | -20.1m/s | 0°C | 0% | 0hPa | 0V | 00:00:00 | 00:00:00 | 00:00:00 | |
| IW2NTF | 2026-09-06 01:24:59 | 41.79435 | 8.71518 | 290° | 18km/h | 23255m | -21.2m/s | 0°C | 0% | 0hPa | 0V | 00:00:00 | 00:00:00 | 00:00:00 | |
| RDZBGO | 2026-09-06 01:24:40 | 41.79418 | 8.71596 | 275° | 27km/h | 23543m | -21.1m/s | 0°C | 0% | 0hPa | 0V | 00:00:00 | 00:00:00 | 00:00:00 | |
| IW2NTF | 2026-09-06 01:24:39 | 41.79416 | 8.71639 | 276° | 22km/h | 23645m | -19.7m/s | 0°C | 0% | 0hPa | 0V | 00:00:00 | 00:00:00 | 00:00:00 | |
| IW2NTF | 2026-09-06 01:24:19 | 41.79380 | 8.71709 | 102° | 7km/h | 24006m | -20.5m/s | 0°C | 0% | 0hPa | 0V | 00:00:00 | 00:00:00 | 00:00:00 | |
| RDZBGO | 2026-09-06 01:24:19 | 41.79380 | 8.71713 | 82° | 7km/h | 23966m | -19.9m/s | 0°C | 0% | 0hPa | 0V | 00:00:00 | 00:00:00 | 00:00:00 | |
| IW2NTF | 2026-09-06 01:23:59 | 41.79426 | 8.71666 | 221° | 13km/h | 24435m | -19m/s | 0°C | 0% | 0hPa | 0V | 00:00:00 | 00:00:00 | 00:00:00 | |
| RDZBGO | 2026-09-06 01:23:58 | 41.79420 | 8.71661 | 166° | 11km/h | 24378m | -19.1m/s | 0°C | 0% | 0hPa | 0V | 00:00:00 | 00:00:00 | 00:00:00 | |
| IW2NTF | 2026-09-06 01:23:45 | 41.79433 | 8.71702 | 279° | 15km/h | 24751m | -19.1m/s | 0°C | 0% | 0hPa | 0V | 00:00:00 | 00:00:00 | 00:00:00 | |
| RDZBGO | 2026-09-06 01:23:38 | 41.79433 | 8.71706 | 287° | 11km/h | 24771m | -22.1m/s | 0°C | 0% | 0hPa | 0V | 00:00:00 | 00:00:00 | 00:00:00 | |
| IW2NTF | 2026-09-06 01:23:35 | 41.79410 | 8.71723 | 338° | 18km/h | 24937m | -21.7m/s | 0°C | 0% | 0hPa | 0V | 00:00:00 | 00:00:00 | 00:00:00 | |
| RDZBGO | 2026-09-06 01:23:17 | 41.79398 | 8.71760 | 264° | 16km/h | 25214m | -23.9m/s | 0°C | 0% | 0hPa | 0V | 00:00:00 | 00:00:00 | 00:00:00 | |
| RDZBGO | 2026-09-06 01:22:57 | 41.79346 | 8.71826 | 359° | 5km/h | 25661m | -23.7m/s | 0°C | 0% | 0hPa | 0V | 00:00:00 | 00:00:00 | 00:00:00 | |
| RDZBGO | 2026-09-06 01:22:36 | 41.79336 | 8.71921 | 325° | 18km/h | 26191m | -23.3m/s | 0°C | 0% | 0hPa | 0V | 00:00:00 | 00:00:00 | 00:00:00 | |
| RDZBGO | 2026-09-06 01:22:15 | 41.79288 | 8.71952 | 9° | 16km/h | 26756m | -27.1m/s | 0°C | 0% | 0hPa | 0V | 00:00:00 | 00:00:00 | 00:00:00 | |
| RDZBGO | 2026-09-06 01:21:55 | 41.79277 | 8.72030 | 310° | 22km/h | 27331m | -30.2m/s | 0°C | 0% | 0hPa | 0V | 00:00:00 | 00:00:00 | 00:00:00 | |
| RDZBGO | 2026-09-06 01:21:34 | 41.79188 | 8.72073 | 344° | 18km/h | 27967m | -27.4m/s | 0°C | 0% | 0hPa | 0V | 00:00:00 | 00:00:00 | 00:00:00 | |
| RDZ2B | 2026-09-06 01:21:20 | 41.79118 | 8.72074 | 58° | 20km/h | 28401m | -29.4m/s | 0°C | 0% | 0hPa | 0V | 00:00:00 | 00:00:00 | 00:00:00 | |
| RDZBGO | 2026-09-06 01:21:13 | 41.79094 | 8.72054 | 93° | 11km/h | 28622m | -32.8m/s | 0°C | 0% | 0hPa | 0V | 00:00:00 | 00:00:00 | 00:00:00 | |
| IW2NTF | 2026-09-06 01:20:54 | 41.79071 | 8.72009 | 56° | 7km/h | 29158m | -26.7m/s | 0°C | 0% | 0hPa | 0V | 00:00:00 | 00:00:00 | 00:00:00 | |
| RDZBGO | 2026-09-06 01:20:52 | 41.79069 | 8.72006 | 22° | 7km/h | 29213m | -26.4m/s | 0°C | 0% | 0hPa | 0V | 00:00:00 | 00:00:00 | 00:00:00 | |
| IW2NTF | 2026-09-06 01:20:41 | 41.79064 | 8.71961 | 57° | 9km/h | 29682m | -27.1m/s | 0°C | 0% | 0hPa | 0V | 00:00:00 | 00:00:00 | 00:00:00 | |
| RDZBGO | 2026-09-06 01:20:32 | 41.79067 | 8.71947 | 129° | 24km/h | 29765m | -26.9m/s | 0°C | 0% | 0hPa | 0V | 00:00:00 | 00:00:00 | 00:00:00 | |
| IW2NTF | 2026-09-06 01:20:24 | 41.79118 | 8.71923 | 161° | 16km/h | 30123m | -29.6m/s | 0°C | 0% | 0hPa | 0V | 00:00:00 | 00:00:00 | 00:00:00 | |
| RDZBGO | 2026-09-06 01:20:11 | 41.79140 | 8.71925 | 203° | 20km/h | 30403m | -31.0m/s | 0°C | 0% | 0hPa | 0V | 00:00:00 | 00:00:00 | 00:00:00 | |
| IW2NTF | 2026-09-06 01:19:53 | 41.79222 | 8.71947 | 166° | 31km/h | 31132m | -36.1m/s | 0°C | 0% | 0hPa | 0V | 00:00:00 | 00:00:00 | 00:00:00 | |
| RDZBGO | 2026-09-06 01:19:50 | 41.79215 | 8.71950 | 155° | 29km/h | 31096m | -35.0m/s | 0°C | 0% | 0hPa | 0V | 00:00:00 | 00:00:00 | 00:00:00 | |
| RDZBGO | 2026-09-06 01:19:29 | 41.79330 | 8.71990 | 194° | 15km/h | 31798m | -33.5m/s | 0°C | 0% | 0hPa | 0V | 00:00:00 | 00:00:00 | 00:00:00 | |
| RDZBGO | 2026-09-06 01:19:08 | 41.79362 | 8.72103 | 251° | 58km/h | 32506m | -30.8m/s | 0°C | 0% | 0hPa | 0V | 00:00:00 | 00:00:00 | 00:00:00 | |
| RDZBGO | 2026-09-06 01:18:48 | 41.79429 | 8.72244 | 264° | 15km/h | 33277m | -40.7m/s | 0°C | 0% | 0hPa | 0V | 00:00:00 | 00:00:00 | 00:00:00 | |
| RDZBGO | 2026-09-06 01:18:27 | 41.79482 | 8.72403 | 230° | 24km/h | 34254m | -36.2m/s | 0°C | 0% | 0hPa | 0V | 00:00:00 | 00:00:00 | 00:00:00 | |
| RDZBGO | 2026-09-06 01:18:06 | 41.79555 | 8.72590 | 258° | 44km/h | 34923m | -41.3m/s | 0°C | 0% | 0hPa | 0V | 00:00:00 | 00:00:00 | 00:00:00 | |
| RDZ2B | 2026-09-06 01:17:59 | 41.79568 | 8.72639 | 230° | 35km/h | 35129m | -20.9m/s | 0°C | 0% | 0hPa | 0V | 00:00:00 | 00:00:00 | 00:00:00 | |
| RDZBGO | 2026-09-06 01:17:45 | 41.79602 | 8.72758 | 359° | 22km/h | 35491m | -32.7m/s | 0°C | 0% | 0hPa | 0V | 00:00:00 | 00:00:00 | 00:00:00 | |
| RDZBGO | 2026-09-06 01:17:24 | 41.79612 | 8.72959 | 205° | 35km/h | 35526m | 5.6m/s | 0°C | 0% | 0hPa | 0V | 00:00:00 | 00:00:00 | 00:00:00 | |
| IW2NTF | 2026-09-06 01:17:12 | 41.79630 | 8.73083 | 283° | 15km/h | 35441m | 6.7m/s | 0°C | 0% | 0hPa | 0V | 00:00:00 | 00:00:00 | 00:00:00 | |
| RDZBGO | 2026-09-06 01:17:03 | 41.79632 | 8.73109 | 264° | 40km/h | 35409m | 6.7m/s | 0°C | 0% | 0hPa | 0V | 00:00:00 | 00:00:00 | 00:00:00 | |
| RDZBGO | 2026-09-06 01:16:42 | 41.79709 | 8.73286 | 268° | 22km/h | 35291m | 6.7m/s | 0°C | 0% | 0hPa | 0V | 00:00:00 | 00:00:00 | 00:00:00 | |
| RDZ2B | 2026-09-06 01:16:37 | 41.79713 | 8.73324 | 236° | 38km/h | 35264m | 6.1m/s | 0°C | 0% | 0hPa | 0V | 00:00:00 | 00:00:00 | 00:00:00 | |
| RDZBGO | 2026-09-06 01:16:21 | 41.79761 | 8.73471 | 235° | 24km/h | 35175m | 6.3m/s | 0°C | 0% | 0hPa | 0V | 00:00:00 | 00:00:00 | 00:00:00 | |
| RDZ2B | 2026-09-06 01:16:05 | 41.79805 | 8.73610 | 250° | 24km/h | 35089m | 5.5m/s | 0°C | 0% | 0hPa | 0V | 00:00:00 | 00:00:00 | 00:00:00 | |
| RDZBGO | 2026-09-06 01:16:01 | 41.79801 | 8.73630 | 293° | 20km/h | 35066m | 4.5m/s | 0°C | 0% | 0hPa | 0V | 00:00:00 | 00:00:00 | 00:00:00 | |
| RDZBGO | 2026-09-06 01:15:40 | 41.79822 | 8.73792 | 271° | 35km/h | 34961m | 8.8m/s | 0°C | 0% | 0hPa | 0V | 00:00:00 | 00:00:00 | 00:00:00 | |
| IW2NTF | 2026-09-06 01:15:33 | 41.79837 | 8.73938 | 279° | 42km/h | 34886m | -0.4m/s | 0°C | 0% | 0hPa | 0V | 00:00:00 | 00:00:00 | 00:00:00 | |
| RDZBGO | 2026-09-06 01:15:19 | 41.79884 | 8.73965 | 268° | 27km/h | 34851m | 9.4m/s | 0°C | 0% | 0hPa | 0V | 00:00:00 | 00:00:00 | 00:00:00 | |
| IW2NTF | 2026-09-06 01:15:09 | 41.79891 | 8.74102 | 221° | 20km/h | 34765m | 7m/s | 0°C | 0% | 0hPa | 0V | 00:00:00 | 00:00:00 | 00:00:00 | |
| RDZBGO | 2026-09-06 01:14:58 | 41.79921 | 8.74132 | 254° | 35km/h | 34740m | 6.1m/s | 0°C | 0% | 0hPa | 0V | 00:00:00 | 00:00:00 | 00:00:00 | |
| RDZ2B | 2026-09-06 01:14:53 | 41.79915 | 8.74190 | 271° | 26km/h | 34715m | 4.8m/s | 0°C | 0% | 0hPa | 0V | 00:00:00 | 00:00:00 | 00:00:00 | |
| RDZBGO | 2026-09-06 01:14:37 | 41.80011 | 8.74331 | 224° | 51km/h | 34633m | 3.5m/s | 0°C | 0% | 0hPa | 0V | 00:00:00 | 00:00:00 | 00:00:00 | |
| IW2NTF | 2026-09-06 01:14:30 | 41.80055 | 8.74436 | 204° | 38km/h | 34578m | 4m/s | 0°C | 0% | 0hPa | 0V | 00:00:00 | 00:00:00 | 00:00:00 | |
| RDZ2B | 2026-09-06 01:14:22 | 41.80079 | 8.74492 | 255° | 46km/h | 34552m | 4.6m/s | 0°C | 0% | 0hPa | 0V | 00:00:00 | 00:00:00 | 00:00:00 | |
| RDZBGO | 2026-09-06 01:14:17 | 41.80098 | 8.74533 | 208° | 22km/h | 34526m | 5.0m/s | 0°C | 0% | 0hPa | 0V | 00:00:00 | 00:00:00 | 00:00:00 | |
| IW2NTF | 2026-09-06 01:13:59 | 41.80209 | 8.74734 | 192° | 16km/h | 34404m | 5.9m/s | 0°C | 0% | 0hPa | 0V | 00:00:00 | 00:00:00 | 00:00:00 | |
| RDZBGO | 2026-09-06 01:13:56 | 41.80206 | 8.74720 | 281° | 29km/h | 34421m | 4.6m/s | 0°C | 0% | 0hPa | 0V | 00:00:00 | 00:00:00 | 00:00:00 | |
| IW2NTF | 2026-09-06 01:13:42 | 41.80270 | 8.74883 | 255° | 46km/h | 34310m | 5m/s | 0°C | 0% | 0hPa | 0V | 00:00:00 | 00:00:00 | 00:00:00 | |
| RDZ2B | 2026-09-06 01:13:41 | 41.80236 | 8.74825 | 230° | 13km/h | 34342m | 4.9m/s | 0°C | 0% | 0hPa | 0V | 00:00:00 | 00:00:00 | 00:00:00 | |
| RDZBGO | 2026-09-06 01:13:35 | 41.80270 | 8.74882 | 257° | 46km/h | 34310m | 5.1m/s | 0°C | 0% | 0hPa | 0V | 00:00:00 | 00:00:00 | 00:00:00 | |
| IW2NTF | 2026-09-06 01:13:24 | 41.80324 | 8.75041 | 193° | 26km/h | 34221m | 6m/s | 0°C | 0% | 0hPa | 0V | 00:00:00 | 00:00:00 | 00:00:00 | |
| RDZ2B | 2026-09-06 01:13:18 | 41.80324 | 8.75041 | 195° | 26km/h | 34222m | 6.0m/s | 0°C | 0% | 0hPa | 0V | 00:00:00 | 00:00:00 | 00:00:00 | |
| RDZBGO | 2026-09-06 01:13:15 | 41.80348 | 8.75051 | 213° | 38km/h | 34206m | 4.8m/s | 0°C | 0% | 0hPa | 0V | 00:00:00 | 00:00:00 | 00:00:00 | |
| RDZ2B | 2026-09-06 01:12:56 | 41.80450 | 8.75227 | 173° | 9km/h | 34100m | 6.8m/s | 0°C | 0% | 0hPa | 0V | 00:00:00 | 00:00:00 | 00:00:00 | |
| RDZBGO | 2026-09-06 01:12:54 | 41.80450 | 8.75228 | 297° | 9km/h | 34089m | 4.3m/s | 0°C | 0% | 0hPa | 0V | 00:00:00 | 00:00:00 | 00:00:00 | |
| RDZBGO | 2026-09-06 01:12:33 | 41.80519 | 8.75391 | 325° | 31km/h | 33975m | 6.3m/s | 0°C | 0% | 0hPa | 0V | 00:00:00 | 00:00:00 | 00:00:00 | |
| RDZ2B | 2026-09-06 01:12:30 | 41.80510 | 8.75395 | 178° | 9km/h | 33960m | 5.7m/s | 0°C | 0% | 0hPa | 0V | 00:00:00 | 00:00:00 | 00:00:00 | |
| RDZBGO | 2026-09-06 01:12:13 | 41.80560 | 8.75503 | 275° | 29km/h | 33863m | 5.5m/s | 0°C | 0% | 0hPa | 0V | 00:00:00 | 00:00:00 | 00:00:00 | |
| IW2NTF | 2026-09-06 01:12:08 | 41.80545 | 8.75532 | 170° | 9km/h | 33829m | 6m/s | 0°C | 0% | 0hPa | 0V | 00:00:00 | 00:00:00 | 00:00:00 | |
| RDZ2B | 2026-09-06 01:12:05 | 41.80554 | 8.75533 | 200° | 26km/h | 33818m | 4.8m/s | 0°C | 0% | 0hPa | 0V | 00:00:00 | 00:00:00 | 00:00:00 | |
| RDZBGO | 2026-09-06 01:11:52 | 41.80568 | 8.75611 | 257° | 44km/h | 33747m | 5.6m/s | 0°C | 0% | 0hPa | 0V | 00:00:00 | 00:00:00 | 00:00:00 | |
| RDZ2B | 2026-09-06 01:11:40 | 41.80568 | 8.75681 | 293° | 31km/h | 33679m | 5.8m/s | 0°C | 0% | 0hPa | 0V | 00:00:00 | 00:00:00 | 00:00:00 | |
| RDZBGO | 2026-09-06 01:11:31 | 41.80565 | 8.75712 | 257° | 18km/h | 33628m | 5.5m/s | 0°C | 0% | 0hPa | 0V | 00:00:00 | 00:00:00 | 00:00:00 | |
| IW2NTF | 2026-09-06 01:11:16 | 41.80576 | 8.75851 | 157° | 38km/h | 33520m | 7.3m/s | 0°C | 0% | 0hPa | 0V | 00:00:00 | 00:00:00 | 00:00:00 | |
| RDZBGO | 2026-09-06 01:11:10 | 41.80587 | 8.75851 | 196° | 53km/h | 33515m | 4.4m/s | 0°C | 0% | 0hPa | 0V | 00:00:00 | 00:00:00 | 00:00:00 | |
| RDZ2B | 2026-09-06 01:11:04 | 41.80589 | 8.75931 | 21° | 15km/h | 33484m | 5.3m/s | 0°C | 0% | 0hPa | 0V | 00:00:00 | 00:00:00 | 00:00:00 | |
| RDZBGO | 2026-09-06 01:10:49 | 41.80629 | 8.76058 | 314° | 58km/h | 33397m | 10.1m/s | 0°C | 0% | 0hPa | 0V | 00:00:00 | 00:00:00 | 00:00:00 | |
| IW2NTF | 2026-09-06 01:10:38 | 41.80685 | 8.76174 | 226° | 33km/h | 33315m | 6.5m/s | 0°C | 0% | 0hPa | 0V | 00:00:00 | 00:00:00 | 00:00:00 | |
| RDZ2B | 2026-09-06 01:10:29 | 41.80679 | 8.76178 | 13° | 26km/h | 33291m | -3.8m/s | 0°C | 0% | 0hPa | 0V | 00:00:00 | 00:00:00 | 00:00:00 | |
| RDZBGO | 2026-09-06 01:10:08 | 41.80781 | 8.76275 | 334° | 9km/h | 33174m | 0.9m/s | 0°C | 0% | 0hPa | 0V | 00:00:00 | 00:00:00 | 00:00:00 | |
| RDZ2B | 2026-09-06 01:10:06 | 41.80786 | 8.76281 | 207° | 35km/h | 33164m | 9.2m/s | 0°C | 0% | 0hPa | 0V | 00:00:00 | 00:00:00 | 00:00:00 | |
| IW2NTF | 2026-09-06 01:09:50 | 41.80886 | 8.76320 | 0° | 13km/h | 33059m | 1.7m/s | 0°C | 0% | 0hPa | 0V | 00:00:00 | 00:00:00 | 00:00:00 | |
| RDZBGO | 2026-09-06 01:09:48 | 41.80890 | 8.76323 | 37° | 26km/h | 33062m | 3.3m/s | 0°C | 0% | 0hPa | 0V | 00:00:00 | 00:00:00 | 00:00:00 | |
| RDZ2B | 2026-09-06 01:09:44 | 41.80895 | 8.76341 | 225° | 55km/h | 33041m | 8.3m/s | 0°C | 0% | 0hPa | 0V | 00:00:00 | 00:00:00 | 00:00:00 | |
| IW2NTF | 2026-09-06 01:09:31 | 41.80963 | 8.76378 | 251° | 42km/h | 32935m | 8m/s | 0°C | 0% | 0hPa | 0V | 00:00:00 | 00:00:00 | 00:00:00 | |
| RDZBGO | 2026-09-06 01:09:28 | 41.80957 | 8.76368 | 89° | 18km/h | 32953m | 2.4m/s | 0°C | 0% | 0hPa | 0V | 00:00:00 | 00:00:00 | 00:00:00 | |
| RDZ2B | 2026-09-06 01:09:20 | 41.80976 | 8.76419 | 175° | 16km/h | 32916m | 7.3m/s | 0°C | 0% | 0hPa | 0V | 00:00:00 | 00:00:00 | 00:00:00 | |
| IW2NTF | 2026-09-06 01:09:18 | 41.80990 | 8.76429 | 282° | 38km/h | 32871m | 0.6m/s | 0°C | 0% | 0hPa | 0V | 00:00:00 | 00:00:00 | 00:00:00 | |
| RDZBGO | 2026-09-06 01:09:07 | 41.81028 | 8.76430 | 150° | 42km/h | 32844m | -0.9m/s | 0°C | 0% | 0hPa | 0V | 00:00:00 | 00:00:00 | 00:00:00 | |
| RDZBGO | 2026-09-06 01:08:47 | 41.81074 | 8.76504 | 59° | 18km/h | 32738m | 7.4m/s | 0°C | 0% | 0hPa | 0V | 00:00:00 | 00:00:00 | 00:00:00 | |
| RDZ2B | 2026-09-06 01:08:33 | 41.81041 | 8.76578 | 228° | 57km/h | 32659m | 11.2m/s | 0°C | 0% | 0hPa | 0V | 00:00:00 | 00:00:00 | 00:00:00 | |
| RDZBGO | 2026-09-06 01:08:27 | 41.81047 | 8.76582 | 309° | 53km/h | 32623m | 1.2m/s | 0°C | 0% | 0hPa | 0V | 00:00:00 | 00:00:00 | 00:00:00 | |
| RDZBGO | 2026-09-06 01:08:07 | 41.81080 | 8.76710 | 250° | 26km/h | 32518m | 8.2m/s | 0°C | 0% | 0hPa | 0V | 00:00:00 | 00:00:00 | 00:00:00 | |
| RDZ2B | 2026-09-06 01:07:59 | 41.81098 | 8.76743 | 258° | 51km/h | 32463m | -1.2m/s | 0°C | 0% | 0hPa | 0V | 00:00:00 | 00:00:00 | 00:00:00 | |
| RDZBGO | 2026-09-06 01:07:45 | 41.81129 | 8.76802 | 21° | 20km/h | 32377m | 2.4m/s | 0°C | 0% | 0hPa | 0V | 00:00:00 | 00:00:00 | 00:00:00 | |
| RDZBGO | 2026-09-06 01:07:24 | 41.81205 | 8.76859 | 203° | 55km/h | 32261m | 1.7m/s | 0°C | 0% | 0hPa | 0V | 00:00:00 | 00:00:00 | 00:00:00 | |
| RDZBGO | 2026-09-06 01:07:02 | 41.81211 | 8.76999 | 356° | 20km/h | 32129m | 2.7m/s | 0°C | 0% | 0hPa | 0V | 00:00:00 | 00:00:00 | 00:00:00 | |
| RDZ2B | 2026-09-06 01:06:49 | 41.81259 | 8.77038 | 196° | 53km/h | 32052m | 3.1m/s | 0°C | 0% | 0hPa | 0V | 00:00:00 | 00:00:00 | 00:00:00 | |
| RDZBGO | 2026-09-06 01:06:41 | 41.81277 | 8.77076 | 179° | 62km/h | 32006m | 4.9m/s | 0°C | 0% | 0hPa | 0V | 00:00:00 | 00:00:00 | 00:00:00 | |
| RDZ2B | 2026-09-06 01:06:24 | 41.81364 | 8.77122 | 190° | 64km/h | 31905m | -1.1m/s | 0°C | 0% | 0hPa | 0V | 00:00:00 | 00:00:00 | 00:00:00 | |
| RDZBGO | 2026-09-06 01:06:20 | 41.81374 | 8.77158 | 345° | 46km/h | 31878m | 4.3m/s | 0°C | 0% | 0hPa | 0V | 00:00:00 | 00:00:00 | 00:00:00 | |
| IW2NTF | 2026-09-06 01:06:07 | 41.81433 | 8.77182 | 34° | 20km/h | 31775m | -3.3m/s | 0°C | 0% | 0hPa | 0V | 00:00:00 | 00:00:00 | 00:00:00 | |
| RDZ2B | 2026-09-06 01:06:01 | 41.81433 | 8.77182 | 36° | 20km/h | 31775m | -3.3m/s | 0°C | 0% | 0hPa | 0V | 00:00:00 | 00:00:00 | 00:00:00 | |
| RDZBGO | 2026-09-06 01:06:00 | 41.81432 | 8.77179 | 135° | 7km/h | 31775m | 2.6m/s | 0°C | 0% | 0hPa | 0V | 00:00:00 | 00:00:00 | 00:00:00 | |
| RDZBGO | 2026-09-06 01:05:39 | 41.81533 | 8.77207 | 176° | 42km/h | 31641m | 8.4m/s | 0°C | 0% | 0hPa | 0V | 00:00:00 | 00:00:00 | 00:00:00 | |
| RDZ2B | 2026-09-06 01:05:31 | 41.81578 | 8.77243 | 247° | 13km/h | 31598m | 3.8m/s | 0°C | 0% | 0hPa | 0V | 00:00:00 | 00:00:00 | 00:00:00 | |
| RDZBGO | 2026-09-06 01:05:18 | 41.81637 | 8.77237 | 148° | 53km/h | 31525m | 1.6m/s | 0°C | 0% | 0hPa | 0V | 00:00:00 | 00:00:00 | 00:00:00 | |
| RDZ2B | 2026-09-06 01:05:09 | 41.81674 | 8.77236 | 145° | 46km/h | 31474m | 3.3m/s | 0°C | 0% | 0hPa | 0V | 00:00:00 | 00:00:00 | 00:00:00 | |
| RDZBGO | 2026-09-06 01:04:57 | 41.81725 | 8.77229 | 258° | 31km/h | 31409m | 1.4m/s | 0°C | 0% | 0hPa | 0V | 00:00:00 | 00:00:00 | 00:00:00 | |
| RDZ2B | 2026-09-06 01:04:46 | 41.81720 | 8.77207 | 35° | 46km/h | 31342m | 6.9m/s | 0°C | 0% | 0hPa | 0V | 00:00:00 | 00:00:00 | 00:00:00 | |
| RDZBGO | 2026-09-06 01:04:34 | 41.81746 | 8.77160 | 180° | 55km/h | 31275m | 10.2m/s | 0°C | 0% | 0hPa | 0V | 00:00:00 | 00:00:00 | 00:00:00 | |
| RDZ2B | 2026-09-06 01:04:24 | 41.81790 | 8.77182 | 228° | 55km/h | 31218m | 3.2m/s | 0°C | 0% | 0hPa | 0V | 00:00:00 | 00:00:00 | 00:00:00 | |
| RDZBGO | 2026-09-06 01:04:13 | 41.81830 | 8.77207 | 7° | 22km/h | 31157m | 11.8m/s | 0°C | 0% | 0hPa | 0V | 00:00:00 | 00:00:00 | 00:00:00 | |
| RDZ2B | 2026-09-06 01:04:01 | 41.81847 | 8.77176 | 101° | 27km/h | 31094m | 1.6m/s | 0°C | 0% | 0hPa | 0V | 00:00:00 | 00:00:00 | 00:00:00 | |
| RDZBGO | 2026-09-06 01:03:53 | 41.81873 | 8.77190 | 76° | 51km/h | 31046m | 4.2m/s | 0°C | 0% | 0hPa | 0V | 00:00:00 | 00:00:00 | 00:00:00 | |
| RDZBGO | 2026-09-06 01:03:33 | 41.81935 | 8.77189 | 192° | 71km/h | 30933m | 5.3m/s | 0°C | 0% | 0hPa | 0V | 00:00:00 | 00:00:00 | 00:00:00 | |
| RDZ2B | 2026-09-06 01:03:32 | 41.81949 | 8.77194 | 201° | 47km/h | 30932m | -2.9m/s | 0°C | 0% | 0hPa | 0V | 00:00:00 | 00:00:00 | 00:00:00 | |
| RDZBGO | 2026-09-06 01:03:12 | 41.82014 | 8.77223 | 260° | 31km/h | 30822m | 7.6m/s | 0°C | 0% | 0hPa | 0V | 00:00:00 | 00:00:00 | 00:00:00 | |
| RDZ2B | 2026-09-06 01:03:09 | 41.82004 | 8.77242 | 23° | 13km/h | 30805m | 4.1m/s | 0°C | 0% | 0hPa | 0V | 00:00:00 | 00:00:00 | 00:00:00 | |
| RDZBGO | 2026-09-06 01:02:52 | 41.82042 | 8.77305 | 8° | 33km/h | 30716m | 4.1m/s | 0°C | 0% | 0hPa | 0V | 00:00:00 | 00:00:00 | 00:00:00 | |
| RDZ2B | 2026-09-06 01:02:49 | 41.82050 | 8.77279 | 168° | 60km/h | 30695m | 4.1m/s | 0°C | 0% | 0hPa | 0V | 00:00:00 | 00:00:00 | 00:00:00 | |
| RDZBGO | 2026-09-06 01:02:32 | 41.82110 | 8.77325 | 195° | 44km/h | 30602m | 5.7m/s | 0°C | 0% | 0hPa | 0V | 00:00:00 | 00:00:00 | 00:00:00 | |
| RDZ2B | 2026-09-06 01:02:24 | 41.82140 | 8.77359 | 168° | 47km/h | 30553m | 1.1m/s | 0°C | 0% | 0hPa | 0V | 00:00:00 | 00:00:00 | 00:00:00 | |
| RDZBGO | 2026-09-06 01:02:11 | 41.82199 | 8.77434 | 302° | 35km/h | 30478m | 4.1m/s | 0°C | 0% | 0hPa | 0V | 00:00:00 | 00:00:00 | 00:00:00 | |
| RDZ2B | 2026-09-06 01:02:00 | 41.82202 | 8.77460 | 85° | 38km/h | 30418m | 4.5m/s | 0°C | 0% | 0hPa | 0V | 00:00:00 | 00:00:00 | 00:00:00 | |
| RDZBGO | 2026-09-06 01:01:51 | 41.82225 | 8.77471 | 140° | 35km/h | 30368m | 5.8m/s | 0°C | 0% | 0hPa | 0V | 00:00:00 | 00:00:00 | 00:00:00 | |
| IW2NTF | 2026-09-06 01:01:46 | 41.82278 | 8.77475 | 213° | 64km/h | 30301m | 5.9m/s | 0°C | 0% | 0hPa | 0V | 00:00:00 | 00:00:00 | 00:00:00 | |
| RDZ2B | 2026-09-06 01:01:39 | 41.82286 | 8.77488 | 247° | 49km/h | 30297m | 1.4m/s | 0°C | 0% | 0hPa | 0V | 00:00:00 | 00:00:00 | 00:00:00 | |
| RDZBGO | 2026-09-06 01:01:31 | 41.82313 | 8.77478 | 245° | 42km/h | 30254m | 4.1m/s | 0°C | 0% | 0hPa | 0V | 00:00:00 | 00:00:00 | 00:00:00 | |
| RDZ2B | 2026-09-06 01:01:17 | 41.82319 | 8.77460 | 138° | 37km/h | 30175m | 6.5m/s | 0°C | 0% | 0hPa | 0V | 00:00:00 | 00:00:00 | 00:00:00 | |
| RDZBGO | 2026-09-06 01:01:08 | 41.82339 | 8.77453 | 154° | 40km/h | 30121m | 8.1m/s | 0°C | 0% | 0hPa | 0V | 00:00:00 | 00:00:00 | 00:00:00 | |
| RDZ2B | 2026-09-06 01:00:51 | 41.82373 | 8.77431 | 157° | 66km/h | 30019m | 7.9m/s | 0°C | 0% | 0hPa | 0V | 00:00:00 | 00:00:00 | 00:00:00 | |
| RDZBGO | 2026-09-06 01:00:49 | 41.82399 | 8.77448 | 292° | 37km/h | 30006m | 7.9m/s | 0°C | 0% | 0hPa | 0V | 00:00:00 | 00:00:00 | 00:00:00 | |
| RDZ2B | 2026-09-06 01:00:29 | 41.82394 | 8.77400 | 106° | 47km/h | 29894m | 2.2m/s | 0°C | 0% | 0hPa | 0V | 00:00:00 | 00:00:00 | 00:00:00 | |
| RDZBGO | 2026-09-06 01:00:27 | 41.82410 | 8.77384 | 188° | 44km/h | 29881m | 10.0m/s | 0°C | 0% | 0hPa | 0V | 00:00:00 | 00:00:00 | 00:00:00 | |
| IW2NTF | 2026-09-06 01:00:08 | 41.82403 | 8.77335 | 141° | 53km/h | 29738m | 8m/s | 0°C | 0% | 0hPa | 0V | 00:00:00 | 00:00:00 | 00:00:00 | |
| RDZ2B | 2026-09-06 01:00:06 | 41.82408 | 8.77373 | 21° | 53km/h | 29754m | 1.4m/s | 0°C | 0% | 0hPa | 0V | 00:00:00 | 00:00:00 | 00:00:00 | |
| IW2NTF | 2026-09-06 00:59:47 | 41.82372 | 8.77306 | 75° | 47km/h | 29610m | 6.2m/s | 0°C | 0% | 0hPa | 0V | 00:00:00 | 00:00:00 | 00:00:00 | |
| RDZBGO | 2026-09-06 00:59:45 | 41.82405 | 8.77313 | 269° | 31km/h | 29635m | 7.0m/s | 0°C | 0% | 0hPa | 0V | 00:00:00 | 00:00:00 | 00:00:00 | |
| RDZ2B | 2026-09-06 00:59:31 | 41.82360 | 8.77275 | 185° | 38km/h | 29550m | 3.7m/s | 0°C | 0% | 0hPa | 0V | 00:00:00 | 00:00:00 | 00:00:00 | |
| RDZBGO | 2026-09-06 00:59:24 | 41.82328 | 8.77264 | 105° | 22km/h | 29512m | 10.4m/s | 0°C | 0% | 0hPa | 0V | 00:00:00 | 00:00:00 | 00:00:00 | |
| IW2NTF | 2026-09-06 00:59:08 | 41.82290 | 8.77252 | 64° | 27km/h | 29410m | 6.1m/s | 0°C | 0% | 0hPa | 0V | 00:00:00 | 00:00:00 | 00:00:00 | |
| RDZ2B | 2026-09-06 00:59:04 | 41.82298 | 8.77230 | 164° | 24km/h | 29392m | 4.4m/s | 0°C | 0% | 0hPa | 0V | 00:00:00 | 00:00:00 | 00:00:00 | |
| IW2NTF | 2026-09-06 00:58:55 | 41.82261 | 8.77249 | 22° | 38km/h | 29308m | 6.3m/s | 0°C | 0% | 0hPa | 0V | 00:00:00 | 00:00:00 | 00:00:00 | |
| RDZBGO | 2026-09-06 00:58:43 | 41.82260 | 8.77223 | 238° | 26km/h | 29274m | 5.0m/s | 0°C | 0% | 0hPa | 0V | 00:00:00 | 00:00:00 | 00:00:00 | |
| RDZ2B | 2026-09-06 00:58:38 | 41.82238 | 8.77227 | 50° | 40km/h | 29247m | 4.5m/s | 0°C | 0% | 0hPa | 0V | 00:00:00 | 00:00:00 | 00:00:00 | |
| IW2NTF | 2026-09-06 00:58:28 | 41.82221 | 8.77188 | 130° | 31km/h | 29180m | 5.8m/s | 0°C | 0% | 0hPa | 0V | 00:00:00 | 00:00:00 | 00:00:00 | |
| RDZBGO | 2026-09-06 00:58:22 | 41.82230 | 8.77204 | 315° | 38km/h | 29160m | 6.2m/s | 0°C | 0% | 0hPa | 0V | 00:00:00 | 00:00:00 | 00:00:00 | |
| IW2NTF | 2026-09-06 00:58:16 | 41.82168 | 8.77211 | 19° | 42km/h | 29093m | 4.5m/s | 0°C | 0% | 0hPa | 0V | 00:00:00 | 00:00:00 | 00:00:00 | |
| RDZ2B | 2026-09-06 00:58:15 | 41.82203 | 8.77182 | 221° | 15km/h | 29121m | 4.2m/s | 0°C | 0% | 0hPa | 0V | 00:00:00 | 00:00:00 | 00:00:00 | |
| IW2NTF | 2026-09-06 00:58:05 | 41.82129 | 8.77186 | 67° | 37km/h | 29033m | 5.9m/s | 0°C | 0% | 0hPa | 0V | 00:00:00 | 00:00:00 | 00:00:00 | |
| RDZBGO | 2026-09-06 00:58:02 | 41.82154 | 8.77195 | 336° | 42km/h | 29047m | 5.2m/s | 0°C | 0% | 0hPa | 0V | 00:00:00 | 00:00:00 | 00:00:00 | |
| IW2NTF | 2026-09-06 00:57:55 | 41.82110 | 8.77174 | 60° | 42km/h | 28986m | 5.6m/s | 0°C | 0% | 0hPa | 0V | 00:00:00 | 00:00:00 | 00:00:00 | |
| RDZ2B | 2026-09-06 00:57:55 | 41.82145 | 8.77161 | 233° | 24km/h | 29012m | 4.9m/s | 0°C | 0% | 0hPa | 0V | 00:00:00 | 00:00:00 | 00:00:00 | |
| RDZBGO | 2026-09-06 00:57:41 | 41.82089 | 8.77144 | 67° | 49km/h | 28940m | 6.1m/s | 0°C | 0% | 0hPa | 0V | 00:00:00 | 00:00:00 | 00:00:00 | |
| RDZ2B | 2026-09-06 00:57:30 | 41.82091 | 8.77073 | 195° | 22km/h | 28876m | 4.1m/s | 0°C | 0% | 0hPa | 0V | 00:00:00 | 00:00:00 | 00:00:00 | |
| RDZBGO | 2026-09-06 00:57:21 | 41.82082 | 8.77036 | 221° | 18km/h | 28825m | 6.1m/s | 0°C | 0% | 0hPa | 0V | 00:00:00 | 00:00:00 | 00:00:00 | |
| IW2NTF | 2026-09-06 00:57:18 | 41.82059 | 8.77002 | 122° | 38km/h | 28785m | 1.9m/s | 0°C | 0% | 0hPa | 0V | 00:00:00 | 00:00:00 | 00:00:00 | |
| RDZ2B | 2026-09-06 00:57:05 | 41.82030 | 8.76960 | 117° | 27km/h | 28737m | 3.1m/s | 0°C | 0% | 0hPa | 0V | 00:00:00 | 00:00:00 | 00:00:00 | |
| RDZBGO | 2026-09-06 00:57:00 | 41.82011 | 8.76980 | 12° | 53km/h | 28711m | 5.1m/s | 0°C | 0% | 0hPa | 0V | 00:00:00 | 00:00:00 | 00:00:00 | |
| RDZBGO | 2026-09-06 00:56:40 | 41.81918 | 8.76919 | 195° | 29km/h | 28601m | 8.3m/s | 0°C | 0% | 0hPa | 0V | 00:00:00 | 00:00:00 | 00:00:00 | |
| RDZBGO | 2026-09-06 00:56:19 | 41.81790 | 8.76877 | 72° | 49km/h | 28483m | 1.3m/s | 0°C | 0% | 0hPa | 0V | 00:00:00 | 00:00:00 | 00:00:00 | |
| RDZ2B | 2026-09-06 00:56:10 | 41.81740 | 8.76835 | 68° | 42km/h | 28435m | -2.3m/s | 0°C | 0% | 0hPa | 0V | 00:00:00 | 00:00:00 | 00:00:00 | |
| RDZBGO | 2026-09-06 00:55:58 | 41.81678 | 8.76819 | 300° | 42km/h | 28367m | 12.8m/s | 0°C | 0% | 0hPa | 0V | 00:00:00 | 00:00:00 | 00:00:00 | |
| IW2NTF | 2026-09-06 00:55:57 | 41.81621 | 8.76819 | 122° | 24km/h | 28335m | 1.7m/s | 0°C | 0% | 0hPa | 0V | 00:00:00 | 00:00:00 | 00:00:00 | |
| RDZ2B | 2026-09-06 00:55:49 | 41.81614 | 8.76838 | 324° | 66km/h | 28320m | 8.2m/s | 0°C | 0% | 0hPa | 0V | 00:00:00 | 00:00:00 | 00:00:00 | |
| RDZBGO | 2026-09-06 00:55:37 | 41.81503 | 8.76840 | 101° | 29km/h | 28250m | 6.0m/s | 0°C | 0% | 0hPa | 0V | 00:00:00 | 00:00:00 | 00:00:00 | |
| RDZBGO | 2026-09-06 00:55:17 | 41.81426 | 8.76921 | 342° | 58km/h | 28137m | 3.3m/s | 0°C | 0% | 0hPa | 0V | 00:00:00 | 00:00:00 | 00:00:00 | |
| RDZ2B | 2026-09-06 00:55:04 | 41.81404 | 8.76938 | 268° | 49km/h | 28066m | 7.6m/s | 0°C | 0% | 0hPa | 0V | 00:00:00 | 00:00:00 | 00:00:00 | |
| RDZBGO | 2026-09-06 00:54:57 | 41.81380 | 8.76954 | 260° | 49km/h | 28026m | 6.9m/s | 0°C | 0% | 0hPa | 0V | 00:00:00 | 00:00:00 | 00:00:00 | |
| RDZBGO | 2026-09-06 00:54:36 | 41.81282 | 8.76995 | 107° | 24km/h | 27906m | 3.5m/s | 0°C | 0% | 0hPa | 0V | 00:00:00 | 00:00:00 | 00:00:00 | |
| RDZ2B | 2026-09-06 00:54:34 | 41.81288 | 8.76996 | 248° | 31km/h | 27895m | 7.3m/s | 0°C | 0% | 0hPa | 0V | 00:00:00 | 00:00:00 | 00:00:00 | |
| IW2NTF | 2026-09-06 00:54:18 | 41.81199 | 8.77064 | 313° | 57km/h | 27793m | -0.1m/s | 0°C | 0% | 0hPa | 0V | 00:00:00 | 00:00:00 | 00:00:00 | |
| RDZBGO | 2026-09-06 00:54:16 | 41.81205 | 8.77047 | 284° | 60km/h | 27796m | 4.0m/s | 0°C | 0% | 0hPa | 0V | 00:00:00 | 00:00:00 | 00:00:00 | |
| RDZ2B | 2026-09-06 00:54:14 | 41.81188 | 8.77074 | 341° | 47km/h | 27791m | 4.8m/s | 0°C | 0% | 0hPa | 0V | 00:00:00 | 00:00:00 | 00:00:00 | |
| RDZBGO | 2026-09-06 00:53:55 | 41.81049 | 8.77081 | 52° | 5km/h | 27684m | 3.1m/s | 0°C | 0% | 0hPa | 0V | 00:00:00 | 00:00:00 | 00:00:00 | |
| RDZ2B | 2026-09-06 00:53:53 | 41.81045 | 8.77097 | 288° | 58km/h | 27667m | 10.3m/s | 0°C | 0% | 0hPa | 0V | 00:00:00 | 00:00:00 | 00:00:00 | |
| RDZBGO | 2026-09-06 00:53:34 | 41.80922 | 8.77191 | 43° | 44km/h | 27566m | 8.6m/s | 0°C | 0% | 0hPa | 0V | 00:00:00 | 00:00:00 | 00:00:00 | |
| RDZ2B | 2026-09-06 00:53:32 | 41.80924 | 8.77178 | 198° | 31km/h | 27554m | 2.6m/s | 0°C | 0% | 0hPa | 0V | 00:00:00 | 00:00:00 | 00:00:00 | |
| RDZBGO | 2026-09-06 00:53:13 | 41.80837 | 8.77322 | 356° | 62km/h | 27447m | 4.2m/s | 0°C | 0% | 0hPa | 0V | 00:00:00 | 00:00:00 | 00:00:00 | |
| RDZ2B | 2026-09-06 00:53:08 | 41.80834 | 8.77321 | 269° | 57km/h | 27419m | 6.9m/s | 0°C | 0% | 0hPa | 0V | 00:00:00 | 00:00:00 | 00:00:00 | |
| RDZBGO | 2026-09-06 00:52:52 | 41.80775 | 8.77430 | 318° | 62km/h | 27332m | 2.5m/s | 0°C | 0% | 0hPa | 0V | 00:00:00 | 00:00:00 | 00:00:00 | |
| RDZ2B | 2026-09-06 00:52:44 | 41.80744 | 8.77467 | 332° | 73km/h | 27284m | 3.3m/s | 0°C | 0% | 0hPa | 0V | 00:00:00 | 00:00:00 | 00:00:00 | |
| RDZBGO | 2026-09-06 00:52:32 | 41.80712 | 8.77497 | 215° | 33km/h | 27222m | 4.7m/s | 0°C | 0% | 0hPa | 0V | 00:00:00 | 00:00:00 | 00:00:00 | |
| RDZ2B | 2026-09-06 00:52:23 | 41.80711 | 8.77545 | 268° | 37km/h | 27173m | 7.3m/s | 0°C | 0% | 0hPa | 0V | 00:00:00 | 00:00:00 | 00:00:00 | |
| RDZBGO | 2026-09-06 00:52:12 | 41.80676 | 8.77626 | 14° | 27km/h | 27111m | 3.9m/s | 0°C | 0% | 0hPa | 0V | 00:00:00 | 00:00:00 | 00:00:00 | |
| IW2NTF | 2026-09-06 00:52:08 | 41.80688 | 8.77627 | 243° | 38km/h | 27088m | 3.3m/s | 0°C | 0% | 0hPa | 0V | 00:00:00 | 00:00:00 | 00:00:00 | |
| RDZ2B | 2026-09-06 00:52:01 | 41.80682 | 8.77655 | 199° | 38km/h | 27047m | 3.3m/s | 0°C | 0% | 0hPa | 0V | 00:00:00 | 00:00:00 | 00:00:00 | |
| IW2NTF | 2026-09-06 00:51:58 | 41.80679 | 8.77678 | 357° | 35km/h | 27025m | 2.2m/s | 0°C | 0% | 0hPa | 0V | 00:00:00 | 00:00:00 | 00:00:00 | |
| RDZBGO | 2026-09-06 00:51:51 | 41.80691 | 8.77689 | 266° | 16km/h | 26996m | 5.7m/s | 0°C | 0% | 0hPa | 0V | 00:00:00 | 00:00:00 | 00:00:00 | |
| IW2NTF | 2026-09-06 00:51:48 | 41.80677 | 8.77690 | 41° | 22km/h | 26979m | 3.5m/s | 0°C | 0% | 0hPa | 0V | 00:00:00 | 00:00:00 | 00:00:00 | |
| RDZ2B | 2026-09-06 00:51:41 | 41.80675 | 8.77695 | 27° | 37km/h | 26941m | 4.0m/s | 0°C | 0% | 0hPa | 0V | 00:00:00 | 00:00:00 | 00:00:00 | |
| IW2NTF | 2026-09-06 00:51:38 | 41.80679 | 8.77686 | 268° | 22km/h | 26917m | 2.3m/s | 0°C | 0% | 0hPa | 0V | 00:00:00 | 00:00:00 | 00:00:00 | |
| RDZBGO | 2026-09-06 00:51:30 | 41.80656 | 8.77662 | 197° | 16km/h | 26884m | 6.4m/s | 0°C | 0% | 0hPa | 0V | 00:00:00 | 00:00:00 | 00:00:00 | |
| IW2NTF | 2026-09-06 00:51:28 | 41.80638 | 8.77667 | 231° | 26km/h | 26841m | 2.6m/s | 0°C | 0% | 0hPa | 0V | 00:00:00 | 00:00:00 | 00:00:00 | |
| RDZ2B | 2026-09-06 00:51:18 | 41.80614 | 8.77686 | 23° | 44km/h | 26819m | 1.9m/s | 0°C | 0% | 0hPa | 0V | 00:00:00 | 00:00:00 | 00:00:00 | |
| IW2NTF | 2026-09-06 00:51:14 | 41.80583 | 8.77686 | 60° | 7km/h | 26769m | 7.3m/s | 0°C | 0% | 0hPa | 0V | 00:00:00 | 00:00:00 | 00:00:00 | |
| RDZBGO | 2026-09-06 00:51:09 | 41.80586 | 8.77689 | 33° | 26km/h | 26774m | 1.9m/s | 0°C | 0% | 0hPa | 0V | 00:00:00 | 00:00:00 | 00:00:00 | |
| IW2NTF | 2026-09-06 00:51:03 | 41.80564 | 8.77717 | 251° | 16km/h | 26711m | 5.7m/s | 0°C | 0% | 0hPa | 0V | 00:00:00 | 00:00:00 | 00:00:00 | |
| RDZ2B | 2026-09-06 00:50:57 | 41.80565 | 8.77723 | 274° | 18km/h | 26706m | 5.5m/s | 0°C | 0% | 0hPa | 0V | 00:00:00 | 00:00:00 | 00:00:00 | |
| RDZBGO | 2026-09-06 00:50:49 | 41.80545 | 8.77747 | 341° | 20km/h | 26663m | 7.0m/s | 0°C | 0% | 0hPa | 0V | 00:00:00 | 00:00:00 | 00:00:00 | |
| RDZ2B | 2026-09-06 00:50:37 | 41.80510 | 8.77779 | 249° | 13km/h | 26602m | 11.7m/s | 0°C | 0% | 0hPa | 0V | 00:00:00 | 00:00:00 | 00:00:00 | |
| RDZBGO | 2026-09-06 00:50:29 | 41.80499 | 8.77801 | 334° | 11km/h | 26560m | 5.6m/s | 0°C | 0% | 0hPa | 0V | 00:00:00 | 00:00:00 | 00:00:00 | |
| RDZ2B | 2026-09-06 00:50:16 | 41.80503 | 8.77827 | 343° | 20km/h | 26487m | 6.2m/s | 0°C | 0% | 0hPa | 0V | 00:00:00 | 00:00:00 | 00:00:00 | |
| IW2NTF | 2026-09-06 00:50:12 | 41.80477 | 8.77835 | 346° | 31km/h | 26442m | 2.7m/s | 0°C | 0% | 0hPa | 0V | 00:00:00 | 00:00:00 | 00:00:00 | |
| RDZBGO | 2026-09-06 00:50:08 | 41.80485 | 8.77833 | 360° | 35km/h | 26447m | 6.1m/s | 0°C | 0% | 0hPa | 0V | 00:00:00 | 00:00:00 | 00:00:00 | |
| RDZ2B | 2026-09-06 00:49:55 | 41.80446 | 8.77854 | 252° | 15km/h | 26380m | 2.7m/s | 0°C | 0% | 0hPa | 0V | 00:00:00 | 00:00:00 | 00:00:00 | |
| RDZBGO | 2026-09-06 00:49:48 | 41.80420 | 8.77867 | 242° | 24km/h | 26343m | 3.6m/s | 0°C | 0% | 0hPa | 0V | 00:00:00 | 00:00:00 | 00:00:00 | |
| RDZ2B | 2026-09-06 00:49:34 | 41.80362 | 8.77932 | 161° | 5km/h | 26272m | 7.7m/s | 0°C | 0% | 0hPa | 0V | 00:00:00 | 00:00:00 | 00:00:00 | |
| RDZBGO | 2026-09-06 00:49:27 | 41.80337 | 8.77978 | 74° | 11km/h | 26236m | 6.7m/s | 0°C | 0% | 0hPa | 0V | 00:00:00 | 00:00:00 | 00:00:00 | |
| RDZ2B | 2026-09-06 00:49:13 | 41.80310 | 8.78077 | 34° | 22km/h | 26164m | 3.1m/s | 0°C | 0% | 0hPa | 0V | 00:00:00 | 00:00:00 | 00:00:00 | |
| RDZBGO | 2026-09-06 00:49:07 | 41.80315 | 8.78131 | 336° | 49km/h | 26131m | 5.9m/s | 0°C | 0% | 0hPa | 0V | 00:00:00 | 00:00:00 | 00:00:00 | |
| RDZ2B | 2026-09-06 00:48:52 | 41.80308 | 8.78234 | 342° | 46km/h | 26049m | 4.0m/s | 0°C | 0% | 0hPa | 0V | 00:00:00 | 00:00:00 | 00:00:00 | |
| RDZBGO | 2026-09-06 00:48:47 | 41.80317 | 8.78245 | 255° | 51km/h | 26024m | 4.5m/s | 0°C | 0% | 0hPa | 0V | 00:00:00 | 00:00:00 | 00:00:00 | |
| RDZ2B | 2026-09-06 00:48:32 | 41.80313 | 8.78331 | 250° | 53km/h | 25945m | 4.6m/s | 0°C | 0% | 0hPa | 0V | 00:00:00 | 00:00:00 | 00:00:00 | |
| RDZBGO | 2026-09-06 00:48:25 | 41.80317 | 8.78353 | 227° | 47km/h | 25906m | 4.9m/s | 0°C | 0% | 0hPa | 0V | 00:00:00 | 00:00:00 | 00:00:00 | |
| IW2NTF | 2026-09-06 00:48:14 | 41.80335 | 8.78411 | 304° | 44km/h | 25845m | 3.2m/s | 0°C | 0% | 0hPa | 0V | 00:00:00 | 00:00:00 | 00:00:00 | |
| RDZ2B | 2026-09-06 00:48:10 | 41.80336 | 8.78418 | 141° | 42km/h | 25826m | 6.0m/s | 0°C | 0% | 0hPa | 0V | 00:00:00 | 00:00:00 | 00:00:00 | |
| RDZBGO | 2026-09-06 00:48:05 | 41.80337 | 8.78410 | 292° | 40km/h | 25802m | 2.2m/s | 0°C | 0% | 0hPa | 0V | 00:00:00 | 00:00:00 | 00:00:00 | |
| IW2NTF | 2026-09-06 00:47:55 | 41.80343 | 8.78407 | 97° | 29km/h | 25742m | 2.9m/s | 0°C | 0% | 0hPa | 0V | 00:00:00 | 00:00:00 | 00:00:00 | |
| RDZ2B | 2026-09-06 00:47:49 | 41.80324 | 8.78406 | 292° | 31km/h | 25720m | 2.3m/s | 0°C | 0% | 0hPa | 0V | 00:00:00 | 00:00:00 | 00:00:00 | |
| IW2NTF | 2026-09-06 00:47:48 | 41.80312 | 8.78397 | 321° | 38km/h | 25682m | 4.9m/s | 0°C | 0% | 0hPa | 0V | 00:00:00 | 00:00:00 | 00:00:00 | |
| RDZBGO | 2026-09-06 00:47:45 | 41.80330 | 8.78403 | 83° | 29km/h | 25699m | 3.1m/s | 0°C | 0% | 0hPa | 0V | 00:00:00 | 00:00:00 | 00:00:00 | |
| RDZ2B | 2026-09-06 00:47:29 | 41.80279 | 8.78412 | 65° | 18km/h | 25616m | 3.6m/s | 0°C | 0% | 0hPa | 0V | 00:00:00 | 00:00:00 | 00:00:00 | |
| IW2NTF | 2026-09-06 00:47:25 | 41.80246 | 8.78429 | 349° | 13km/h | 25575m | 4.1m/s | 0°C | 0% | 0hPa | 0V | 00:00:00 | 00:00:00 | 00:00:00 | |
| RDZBGO | 2026-09-06 00:47:24 | 41.80249 | 8.78426 | 314° | 16km/h | 25589m | 6.5m/s | 0°C | 0% | 0hPa | 0V | 00:00:00 | 00:00:00 | 00:00:00 | |
| RDZ2B | 2026-09-06 00:47:06 | 41.80165 | 8.78469 | 243° | 27km/h | 25497m | 4.7m/s | 0°C | 0% | 0hPa | 0V | 00:00:00 | 00:00:00 | 00:00:00 | |
| RDZBGO | 2026-09-06 00:47:04 | 41.80162 | 8.78494 | 306° | 55km/h | 25485m | 5.6m/s | 0°C | 0% | 0hPa | 0V | 00:00:00 | 00:00:00 | 00:00:00 | |
| IW2NTF | 2026-09-06 00:46:45 | 41.80082 | 8.78619 | 165° | 9km/h | 25381m | 4.8m/s | 0°C | 0% | 0hPa | 0V | 00:00:00 | 00:00:00 | 00:00:00 | |
| RDZ2B | 2026-09-06 00:46:44 | 41.80082 | 8.78619 | 167° | 9km/h | 25381m | 4.8m/s | 0°C | 0% | 0hPa | 0V | 00:00:00 | 00:00:00 | 00:00:00 | |
| RDZBGO | 2026-09-06 00:46:43 | 41.80085 | 8.78619 | 212° | 16km/h | 25377m | 2.5m/s | 0°C | 0% | 0hPa | 0V | 00:00:00 | 00:00:00 | 00:00:00 | |
| IW2NTF | 2026-09-06 00:46:35 | 41.80079 | 8.78700 | 271° | 16km/h | 25333m | 4.9m/s | 0°C | 0% | 0hPa | 0V | 00:00:00 | 00:00:00 | 00:00:00 | |
| IW2NTF | 2026-09-06 00:46:24 | 41.80077 | 8.78830 | 248° | 24km/h | 25249m | 5.5m/s | 0°C | 0% | 0hPa | 0V | 00:00:00 | 00:00:00 | 00:00:00 | |
| RDZBGO | 2026-09-06 00:46:22 | 41.80065 | 8.78810 | 277° | 27km/h | 25270m | 5.5m/s | 0°C | 0% | 0hPa | 0V | 00:00:00 | 00:00:00 | 00:00:00 | |
| RDZ2B | 2026-09-06 00:46:21 | 41.80066 | 8.78817 | 239° | 18km/h | 25264m | 6.7m/s | 0°C | 0% | 0hPa | 0V | 00:00:00 | 00:00:00 | 00:00:00 | |
| RDZBGO | 2026-09-06 00:46:02 | 41.80088 | 8.78912 | 281° | 26km/h | 25167m | 4.0m/s | 0°C | 0% | 0hPa | 0V | 00:00:00 | 00:00:00 | 00:00:00 | |
| RDZ2B | 2026-09-06 00:46:00 | 41.80086 | 8.78924 | 273° | 9km/h | 25158m | 6.0m/s | 0°C | 0% | 0hPa | 0V | 00:00:00 | 00:00:00 | 00:00:00 | |
| RDZBGO | 2026-09-06 00:45:41 | 41.80078 | 8.78963 | 304° | 44km/h | 25061m | 6.5m/s | 0°C | 0% | 0hPa | 0V | 00:00:00 | 00:00:00 | 00:00:00 | |
| RDZ2B | 2026-09-06 00:45:39 | 41.80070 | 8.78988 | 284° | 27km/h | 25054m | 4.0m/s | 0°C | 0% | 0hPa | 0V | 00:00:00 | 00:00:00 | 00:00:00 | |
| IW2NTF | 2026-09-06 00:45:35 | 41.80071 | 8.79019 | 260° | 13km/h | 25006m | 4.5m/s | 0°C | 0% | 0hPa | 0V | 00:00:00 | 00:00:00 | 00:00:00 | |
| RDZBGO | 2026-09-06 00:45:21 | 41.80060 | 8.79049 | 303° | 24km/h | 24961m | 6.6m/s | 0°C | 0% | 0hPa | 0V | 00:00:00 | 00:00:00 | 00:00:00 | |
| RDZ2B | 2026-09-06 00:45:17 | 41.80042 | 8.79049 | 127° | 11km/h | 24941m | 6.7m/s | 0°C | 0% | 0hPa | 0V | 00:00:00 | 00:00:00 | 00:00:00 | |
| RDZ2B | 2026-09-06 00:44:56 | 41.80040 | 8.79135 | 317° | 22km/h | 24835m | 4.4m/s | 0°C | 0% | 0hPa | 0V | 00:00:00 | 00:00:00 | 00:00:00 | |
| RDZBGO | 2026-09-06 00:44:41 | 41.80045 | 8.79176 | 269° | 15km/h | 24757m | 5.6m/s | 0°C | 0% | 0hPa | 0V | 00:00:00 | 00:00:00 | 00:00:00 | |
| RDZ2B | 2026-09-06 00:44:34 | 41.80044 | 8.79194 | 235° | 13km/h | 24721m | 6.6m/s | 0°C | 0% | 0hPa | 0V | 00:00:00 | 00:00:00 | 00:00:00 | |
| RDZBGO | 2026-09-06 00:44:21 | 41.80036 | 8.79240 | 330° | 20km/h | 24655m | 4.1m/s | 0°C | 0% | 0hPa | 0V | 00:00:00 | 00:00:00 | 00:00:00 | |
| RDZ2B | 2026-09-06 00:44:12 | 41.80044 | 8.79256 | 103° | 7km/h | 24606m | 4.2m/s | 0°C | 0% | 0hPa | 0V | 00:00:00 | 00:00:00 | 00:00:00 | |
| RDZBGO | 2026-09-06 00:44:00 | 41.80067 | 8.79282 | 230° | 40km/h | 24546m | 1.1m/s | 0°C | 0% | 0hPa | 0V | 00:00:00 | 00:00:00 | 00:00:00 | |
| RDZ2B | 2026-09-06 00:43:51 | 41.80096 | 8.79292 | 182° | 37km/h | 24503m | 5.2m/s | 0°C | 0% | 0hPa | 0V | 00:00:00 | 00:00:00 | 00:00:00 | |
| IW2NTF | 2026-09-06 00:43:45 | 41.80111 | 8.79275 | 299° | 31km/h | 24439m | 6.9m/s | 0°C | 0% | 0hPa | 0V | 00:00:00 | 00:00:00 | 00:00:00 | |
| RDZBGO | 2026-09-06 00:43:37 | 41.80117 | 8.79296 | 210° | 46km/h | 24431m | 4.1m/s | 0°C | 0% | 0hPa | 0V | 00:00:00 | 00:00:00 | 00:00:00 | |
| IW2NTF | 2026-09-06 00:43:29 | 41.80162 | 8.79244 | 42° | 9km/h | 24361m | 7.2m/s | 0°C | 0% | 0hPa | 0V | 00:00:00 | 00:00:00 | 00:00:00 | |
| RDZ2B | 2026-09-06 00:43:20 | 41.80169 | 8.79245 | 150° | 31km/h | 24341m | 7.2m/s | 0°C | 0% | 0hPa | 0V | 00:00:00 | 00:00:00 | 00:00:00 | |
| RDZBGO | 2026-09-06 00:43:14 | 41.80168 | 8.79224 | 354° | 13km/h | 24311m | 2.0m/s | 0°C | 0% | 0hPa | 0V | 00:00:00 | 00:00:00 | 00:00:00 | |
| IW2NTF | 2026-09-06 00:43:11 | 41.80178 | 8.79198 | 124° | 27km/h | 24290m | 3m/s | 0°C | 0% | 0hPa | 0V | 00:00:00 | 00:00:00 | 00:00:00 | |
| IW2NTF | 2026-09-06 00:43:00 | 41.80168 | 8.79173 | 46° | 26km/h | 24229m | 6.7m/s | 0°C | 0% | 0hPa | 0V | 00:00:00 | 00:00:00 | 00:00:00 | |
| RDZ2B | 2026-09-06 00:42:55 | 41.80164 | 8.79148 | 108° | 13km/h | 24216m | 4.0m/s | 0°C | 0% | 0hPa | 0V | 00:00:00 | 00:00:00 | 00:00:00 | |
| RDZBGO | 2026-09-06 00:42:54 | 41.80164 | 8.79146 | 217° | 4km/h | 24210m | 7.7m/s | 0°C | 0% | 0hPa | 0V | 00:00:00 | 00:00:00 | 00:00:00 | |
| IW2NTF | 2026-09-06 00:42:49 | 41.80148 | 8.79141 | 239° | 7km/h | 24159m | 5.2m/s | 0°C | 0% | 0hPa | 0V | 00:00:00 | 00:00:00 | 00:00:00 | |
| RDZBGO | 2026-09-06 00:42:33 | 41.80132 | 8.79129 | 355° | 15km/h | 24104m | 7.1m/s | 0°C | 0% | 0hPa | 0V | 00:00:00 | 00:00:00 | 00:00:00 | |
| RDZ2B | 2026-09-06 00:42:31 | 41.80121 | 8.79134 | 347° | 24km/h | 24093m | 3.8m/s | 0°C | 0% | 0hPa | 0V | 00:00:00 | 00:00:00 | 00:00:00 | |
| RDZBGO | 2026-09-06 00:42:12 | 41.80060 | 8.79136 | 7° | 22km/h | 23998m | 5.9m/s | 0°C | 0% | 0hPa | 0V | 00:00:00 | 00:00:00 | 00:00:00 | |
| RDZ2B | 2026-09-06 00:42:11 | 41.80053 | 8.79137 | 344° | 33km/h | 23991m | 6.1m/s | 0°C | 0% | 0hPa | 0V | 00:00:00 | 00:00:00 | 00:00:00 | |
| RDZBGO | 2026-09-06 00:41:52 | 41.79956 | 8.79219 | 319° | 31km/h | 23898m | 4.8m/s | 0°C | 0% | 0hPa | 0V | 00:00:00 | 00:00:00 | 00:00:00 | |
| RDZ2B | 2026-09-06 00:41:51 | 41.79951 | 8.79224 | 328° | 18km/h | 23893m | 6.1m/s | 0°C | 0% | 0hPa | 0V | 00:00:00 | 00:00:00 | 00:00:00 | |
| RDZBGO | 2026-09-06 00:41:31 | 41.79895 | 8.79365 | 296° | 31km/h | 23796m | 5.2m/s | 0°C | 0% | 0hPa | 0V | 00:00:00 | 00:00:00 | 00:00:00 | |
| RDZ2B | 2026-09-06 00:41:30 | 41.79892 | 8.79372 | 284° | 16km/h | 23792m | 5.7m/s | 0°C | 0% | 0hPa | 0V | 00:00:00 | 00:00:00 | 00:00:00 | |
| RDZBGO | 2026-09-06 00:41:11 | 41.79897 | 8.79519 | 225° | 16km/h | 23701m | 6.8m/s | 0°C | 0% | 0hPa | 0V | 00:00:00 | 00:00:00 | 00:00:00 | |
| RDZ2B | 2026-09-06 00:41:10 | 41.79901 | 8.79522 | 205° | 26km/h | 23695m | 4.7m/s | 0°C | 0% | 0hPa | 0V | 00:00:00 | 00:00:00 | 00:00:00 | |
| RDZBGO | 2026-09-06 00:40:50 | 41.79927 | 8.79656 | 277° | 27km/h | 23597m | 5.5m/s | 0°C | 0% | 0hPa | 0V | 00:00:00 | 00:00:00 | 00:00:00 | |
| RDZ2B | 2026-09-06 00:40:49 | 41.79927 | 8.79663 | 276° | 16km/h | 23592m | 5.4m/s | 0°C | 0% | 0hPa | 0V | 00:00:00 | 00:00:00 | 00:00:00 | |
| RDZBGO | 2026-09-06 00:40:30 | 41.79935 | 8.79753 | 268° | 37km/h | 23500m | 7.6m/s | 0°C | 0% | 0hPa | 0V | 00:00:00 | 00:00:00 | 00:00:00 | |
| RDZ2B | 2026-09-06 00:40:21 | 41.79936 | 8.79796 | 266° | 26km/h | 23455m | 5.1m/s | 0°C | 0% | 0hPa | 0V | 00:00:00 | 00:00:00 | 00:00:00 | |
| RDZBGO | 2026-09-06 00:40:10 | 41.79930 | 8.79836 | 258° | 9km/h | 23402m | 4.4m/s | 0°C | 0% | 0hPa | 0V | 00:00:00 | 00:00:00 | 00:00:00 | |
| RDZ2B | 2026-09-06 00:40:00 | 41.79925 | 8.79893 | 294° | 33km/h | 23353m | 2.5m/s | 0°C | 0% | 0hPa | 0V | 00:00:00 | 00:00:00 | 00:00:00 | |
| IW2NTF | 2026-09-06 00:39:50 | 41.79908 | 8.79931 | 319° | 7km/h | 23294m | 4.4m/s | 0°C | 0% | 0hPa | 0V | 00:00:00 | 00:00:00 | 00:00:00 | |
| RDZBGO | 2026-09-06 00:39:49 | 41.79910 | 8.79931 | 21° | 18km/h | 23298m | 1.8m/s | 0°C | 0% | 0hPa | 0V | 00:00:00 | 00:00:00 | 00:00:00 | |
| RDZ2B | 2026-09-06 00:39:39 | 41.79901 | 8.79976 | 262° | 24km/h | 23249m | 7.3m/s | 0°C | 0% | 0hPa | 0V | 00:00:00 | 00:00:00 | 00:00:00 | |
| RDZBGO | 2026-09-06 00:39:29 | 41.79923 | 8.80019 | 228° | 18km/h | 23198m | 5.2m/s | 0°C | 0% | 0hPa | 0V | 00:00:00 | 00:00:00 | 00:00:00 | |
| IW2NTF | 2026-09-06 00:39:26 | 41.79943 | 8.80034 | 157° | 16km/h | 23157m | 4.4m/s | 0°C | 0% | 0hPa | 0V | 00:00:00 | 00:00:00 | 00:00:00 | |
| RDZ2B | 2026-09-06 00:39:16 | 41.79964 | 8.80061 | 220° | 22km/h | 23136m | 3.7m/s | 0°C | 0% | 0hPa | 0V | 00:00:00 | 00:00:00 | 00:00:00 | |
| RDZBGO | 2026-09-06 00:39:08 | 41.80004 | 8.80079 | 231° | 20km/h | 23097m | 4.2m/s | 0°C | 0% | 0hPa | 0V | 00:00:00 | 00:00:00 | 00:00:00 | |
| IW2NTF | 2026-09-06 00:38:57 | 41.80105 | 8.80068 | 160° | 24km/h | 23005m | 5.5m/s | 0°C | 0% | 0hPa | 0V | 00:00:00 | 00:00:00 | 00:00:00 | |
| RDZ2B | 2026-09-06 00:38:53 | 41.80090 | 8.80079 | 176° | 20km/h | 23020m | 6.0m/s | 0°C | 0% | 0hPa | 0V | 00:00:00 | 00:00:00 | 00:00:00 | |
| RDZBGO | 2026-09-06 00:38:47 | 41.80125 | 8.80070 | 185° | 24km/h | 22989m | 5.3m/s | 0°C | 0% | 0hPa | 0V | 00:00:00 | 00:00:00 | 00:00:00 | |
| RDZ2B | 2026-09-06 00:38:33 | 41.80198 | 8.80032 | 127° | 35km/h | 22919m | 6.7m/s | 0°C | 0% | 0hPa | 0V | 00:00:00 | 00:00:00 | 00:00:00 | |
| RDZBGO | 2026-09-06 00:38:27 | 41.80227 | 8.80010 | 146° | 9km/h | 22889m | 5.1m/s | 0°C | 0% | 0hPa | 0V | 00:00:00 | 00:00:00 | 00:00:00 | |
| IW2NTF | 2026-09-06 00:38:20 | 41.80273 | 8.79948 | 170° | 26km/h | 22829m | 4.4m/s | 0°C | 0% | 0hPa | 0V | 00:00:00 | 00:00:00 | 00:00:00 | |
| RDZ2B | 2026-09-06 00:38:12 | 41.80285 | 8.79935 | 94° | 24km/h | 22814m | 5.8m/s | 0°C | 0% | 0hPa | 0V | 00:00:00 | 00:00:00 | 00:00:00 | |
| RDZBGO | 2026-09-06 00:38:07 | 41.80291 | 8.79910 | 138° | 24km/h | 22788m | 6.1m/s | 0°C | 0% | 0hPa | 0V | 00:00:00 | 00:00:00 | 00:00:00 | |
| RDZ2B | 2026-09-06 00:37:52 | 41.80303 | 8.79837 | 89° | 40km/h | 22715m | 3.0m/s | 0°C | 0% | 0hPa | 0V | 00:00:00 | 00:00:00 | 00:00:00 | |
| RDZBGO | 2026-09-06 00:37:46 | 41.80321 | 8.79819 | 33° | 16km/h | 22685m | 5.4m/s | 0°C | 0% | 0hPa | 0V | 00:00:00 | 00:00:00 | 00:00:00 | |
| IW2NTF | 2026-09-06 00:37:38 | 41.80322 | 8.79773 | 76° | 16km/h | 22643m | 2.9m/s | 0°C | 0% | 0hPa | 0V | 00:00:00 | 00:00:00 | 00:00:00 | |
| RDZ2B | 2026-09-06 00:37:27 | 41.80327 | 8.79745 | 190° | 13km/h | 22595m | 3.8m/s | 0°C | 0% | 0hPa | 0V | 00:00:00 | 00:00:00 | 00:00:00 | |
| RDZBGO | 2026-09-06 00:37:25 | 41.80329 | 8.79747 | 341° | 7km/h | 22585m | 5.8m/s | 0°C | 0% | 0hPa | 0V | 00:00:00 | 00:00:00 | 00:00:00 | |
| RDZ2B | 2026-09-06 00:37:05 | 41.80340 | 8.79701 | 101° | 15km/h | 22488m | 5.9m/s | 0°C | 0% | 0hPa | 0V | 00:00:00 | 00:00:00 | 00:00:00 | |
| RDZBGO | 2026-09-06 00:37:04 | 41.80339 | 8.79697 | 59° | 11km/h | 22483m | 4.0m/s | 0°C | 0% | 0hPa | 0V | 00:00:00 | 00:00:00 | 00:00:00 | |
| RDZBGO | 2026-09-06 00:36:44 | 41.80368 | 8.79659 | 3° | 7km/h | 22385m | 4.8m/s | 0°C | 0% | 0hPa | 0V | 00:00:00 | 00:00:00 | 00:00:00 | |
| RDZ2B | 2026-09-06 00:36:43 | 41.80366 | 8.79657 | 58° | 11km/h | 22381m | 3.8m/s | 0°C | 0% | 0hPa | 0V | 00:00:00 | 00:00:00 | 00:00:00 | |
| RDZBGO | 2026-09-06 00:36:23 | 41.80377 | 8.79639 | 323° | 13km/h | 22282m | 4.0m/s | 0°C | 0% | 0hPa | 0V | 00:00:00 | 00:00:00 | 00:00:00 | |
| RDZ2B | 2026-09-06 00:36:18 | 41.80378 | 8.79648 | 269° | 2km/h | 22257m | 5.8m/s | 0°C | 0% | 0hPa | 0V | 00:00:00 | 00:00:00 | 00:00:00 | |
| RDZBGO | 2026-09-06 00:36:02 | 41.80386 | 8.79704 | 295° | 11km/h | 22180m | 3.9m/s | 0°C | 0% | 0hPa | 0V | 00:00:00 | 00:00:00 | 00:00:00 | |
| RDZ2B | 2026-09-06 00:35:55 | 41.80397 | 8.79721 | 320° | 4km/h | 22145m | 4.9m/s | 0°C | 0% | 0hPa | 0V | 00:00:00 | 00:00:00 | 00:00:00 | |
| RDZBGO | 2026-09-06 00:35:42 | 41.80421 | 8.79737 | 259° | 11km/h | 22082m | 3.1m/s | 0°C | 0% | 0hPa | 0V | 00:00:00 | 00:00:00 | 00:00:00 | |
| RDZ2B | 2026-09-06 00:35:33 | 41.80449 | 8.79738 | 197° | 27km/h | 22038m | 6.5m/s | 0°C | 0% | 0hPa | 0V | 00:00:00 | 00:00:00 | 00:00:00 | |
| RDZBGO | 2026-09-06 00:35:21 | 41.80508 | 8.79747 | 176° | 26km/h | 21979m | 5.5m/s | 0°C | 0% | 0hPa | 0V | 00:00:00 | 00:00:00 | 00:00:00 | |
| RDZ2B | 2026-09-06 00:35:12 | 41.80563 | 8.79733 | 154° | 37km/h | 21935m | 3.3m/s | 0°C | 0% | 0hPa | 0V | 00:00:00 | 00:00:00 | 00:00:00 | |
| RDZBGO | 2026-09-06 00:35:00 | 41.80596 | 8.79707 | 270° | 16km/h | 21879m | 5.3m/s | 0°C | 0% | 0hPa | 0V | 00:00:00 | 00:00:00 | 00:00:00 | |
| RDZ2B | 2026-09-06 00:34:50 | 41.80623 | 8.79697 | 186° | 18km/h | 21825m | 3.9m/s | 0°C | 0% | 0hPa | 0V | 00:00:00 | 00:00:00 | 00:00:00 | |
| RDZ2B | 2026-09-06 00:34:26 | 41.80618 | 8.79627 | 48° | 29km/h | 21713m | 5.6m/s | 0°C | 0% | 0hPa | 0V | 00:00:00 | 00:00:00 | 00:00:00 | |
| RDZBGO | 2026-09-06 00:34:19 | 41.80595 | 8.79608 | 35° | 18km/h | 21679m | 4.7m/s | 0°C | 0% | 0hPa | 0V | 00:00:00 | 00:00:00 | 00:00:00 | |
| RDZ2B | 2026-09-06 00:34:05 | 41.80537 | 8.79576 | 19° | 44km/h | 21614m | 1.1m/s | 0°C | 0% | 0hPa | 0V | 00:00:00 | 00:00:00 | 00:00:00 | |
| RDZBGO | 2026-09-06 00:33:58 | 41.80511 | 8.79559 | 6° | 51km/h | 21581m | 5.4m/s | 0°C | 0% | 0hPa | 0V | 00:00:00 | 00:00:00 | 00:00:00 | |
| RDZ2B | 2026-09-06 00:33:45 | 41.80442 | 8.79542 | 257° | 7km/h | 21515m | 4.1m/s | 0°C | 0% | 0hPa | 0V | 00:00:00 | 00:00:00 | 00:00:00 | |
| RDZBGO | 2026-09-06 00:33:38 | 41.80416 | 8.79556 | 199° | 7km/h | 21478m | 3.3m/s | 0°C | 0% | 0hPa | 0V | 00:00:00 | 00:00:00 | 00:00:00 | |
| RDZ2B | 2026-09-06 00:33:23 | 41.80369 | 8.79574 | 250° | 9km/h | 21399m | 5.4m/s | 0°C | 0% | 0hPa | 0V | 00:00:00 | 00:00:00 | 00:00:00 | |
| RDZBGO | 2026-09-06 00:33:18 | 41.80359 | 8.79578 | 25° | 11km/h | 21373m | 2.6m/s | 0°C | 0% | 0hPa | 0V | 00:00:00 | 00:00:00 | 00:00:00 | |
| RDZ2B | 2026-09-06 00:33:02 | 41.80342 | 8.79632 | 322° | 13km/h | 21291m | 5.4m/s | 0°C | 0% | 0hPa | 0V | 00:00:00 | 00:00:00 | 00:00:00 | |
| RDZBGO | 2026-09-06 00:32:57 | 41.80349 | 8.79658 | 172° | 4km/h | 21263m | 4.6m/s | 0°C | 0% | 0hPa | 0V | 00:00:00 | 00:00:00 | 00:00:00 | |
| RDZ2B | 2026-09-06 00:32:41 | 41.80386 | 8.79714 | 215° | 18km/h | 21184m | 4.7m/s | 0°C | 0% | 0hPa | 0V | 00:00:00 | 00:00:00 | 00:00:00 | |
| RDZBGO | 2026-09-06 00:32:36 | 41.80410 | 8.79730 | 223° | 13km/h | 21161m | 6.2m/s | 0°C | 0% | 0hPa | 0V | 00:00:00 | 00:00:00 | 00:00:00 | |
| RDZ2B | 2026-09-06 00:32:20 | 41.80479 | 8.79779 | 205° | 16km/h | 21085m | 3.6m/s | 0°C | 0% | 0hPa | 0V | 00:00:00 | 00:00:00 | 00:00:00 | |
| RDZBGO | 2026-09-06 00:32:16 | 41.80503 | 8.79780 | 200° | 22km/h | 21066m | 5.1m/s | 0°C | 0% | 0hPa | 0V | 00:00:00 | 00:00:00 | 00:00:00 | |
| RDZ2B | 2026-09-06 00:32:00 | 41.80577 | 8.79789 | 167° | 22km/h | 20987m | 4.8m/s | 0°C | 0% | 0hPa | 0V | 00:00:00 | 00:00:00 | 00:00:00 | |
| RDZBGO | 2026-09-06 00:31:56 | 41.80595 | 8.79782 | 188° | 11km/h | 20967m | 6.1m/s | 0°C | 0% | 0hPa | 0V | 00:00:00 | 00:00:00 | 00:00:00 | |
| RDZ2B | 2026-09-06 00:31:39 | 41.80644 | 8.79751 | 163° | 16km/h | 20885m | 4.5m/s | 0°C | 0% | 0hPa | 0V | 00:00:00 | 00:00:00 | 00:00:00 | |
| RDZBGO | 2026-09-06 00:31:36 | 41.80655 | 8.79746 | 170° | 7km/h | 20872m | 4.2m/s | 0°C | 0% | 0hPa | 0V | 00:00:00 | 00:00:00 | 00:00:00 | |
| RDZ2B | 2026-09-06 00:31:18 | 41.80659 | 8.79719 | 148° | 24km/h | 20788m | 4.8m/s | 0°C | 0% | 0hPa | 0V | 00:00:00 | 00:00:00 | 00:00:00 | |
| RDZBGO | 2026-09-06 00:31:16 | 41.80665 | 8.79708 | 94° | 13km/h | 20779m | 4.2m/s | 0°C | 0% | 0hPa | 0V | 00:00:00 | 00:00:00 | 00:00:00 | |
| RDZ2B | 2026-09-06 00:30:58 | 41.80673 | 8.79710 | 253° | 11km/h | 20695m | 3.8m/s | 0°C | 0% | 0hPa | 0V | 00:00:00 | 00:00:00 | 00:00:00 | |
| RDZBGO | 2026-09-06 00:30:55 | 41.80681 | 8.79709 | 148° | 15km/h | 20680m | 3.8m/s | 0°C | 0% | 0hPa | 0V | 00:00:00 | 00:00:00 | 00:00:00 | |
| RDZ2B | 2026-09-06 00:30:37 | 41.80741 | 8.79703 | 157° | 13km/h | 20596m | 5.9m/s | 0°C | 0% | 0hPa | 0V | 00:00:00 | 00:00:00 | 00:00:00 | |
| RDZBGO | 2026-09-06 00:30:34 | 41.80754 | 8.79684 | 147° | 26km/h | 20581m | 4.6m/s | 0°C | 0% | 0hPa | 0V | 00:00:00 | 00:00:00 | 00:00:00 | |
| RDZ2B | 2026-09-06 00:30:17 | 41.80825 | 8.79662 | 118° | 16km/h | 20498m | 3.1m/s | 0°C | 0% | 0hPa | 0V | 00:00:00 | 00:00:00 | 00:00:00 | |
| RDZBGO | 2026-09-06 00:30:13 | 41.80828 | 8.79659 | 252° | 9km/h | 20484m | 4.2m/s | 0°C | 0% | 0hPa | 0V | 00:00:00 | 00:00:00 | 00:00:00 | |
| RDZ2B | 2026-09-06 00:29:56 | 41.80854 | 8.79646 | 343° | 5km/h | 20407m | 5.0m/s | 0°C | 0% | 0hPa | 0V | 00:00:00 | 00:00:00 | 00:00:00 | |
| RDZBGO | 2026-09-06 00:29:52 | 41.80863 | 8.79650 | 147° | 22km/h | 20389m | 5.2m/s | 0°C | 0% | 0hPa | 0V | 00:00:00 | 00:00:00 | 00:00:00 | |
| RDZ2B | 2026-09-06 00:29:35 | 41.80902 | 8.79636 | 164° | 11km/h | 20314m | 4.5m/s | 0°C | 0% | 0hPa | 0V | 00:00:00 | 00:00:00 | 00:00:00 | |
| RDZBGO | 2026-09-06 00:29:31 | 41.80915 | 8.79630 | 156° | 7km/h | 20296m | 3.5m/s | 0°C | 0% | 0hPa | 0V | 00:00:00 | 00:00:00 | 00:00:00 | |
| RDZ2B | 2026-09-06 00:29:14 | 41.80940 | 8.79593 | 161° | 7km/h | 20224m | 4.3m/s | 0°C | 0% | 0hPa | 0V | 00:00:00 | 00:00:00 | 00:00:00 | |
| RDZBGO | 2026-09-06 00:29:11 | 41.80944 | 8.79575 | 98° | 22km/h | 20211m | 2.7m/s | 0°C | 0% | 0hPa | 0V | 00:00:00 | 00:00:00 | 00:00:00 | |
| RDZ2B | 2026-09-06 00:28:53 | 41.80969 | 8.79517 | 100° | 22km/h | 20132m | 2.5m/s | 0°C | 0% | 0hPa | 0V | 00:00:00 | 00:00:00 | 00:00:00 | |
| RDZBGO | 2026-09-06 00:28:50 | 41.80973 | 8.79509 | 237° | 11km/h | 20119m | 5.0m/s | 0°C | 0% | 0hPa | 0V | 00:00:00 | 00:00:00 | 00:00:00 | |
| RDZ2B | 2026-09-06 00:28:33 | 41.80987 | 8.79504 | 83° | 7km/h | 20049m | 4.0m/s | 0°C | 0% | 0hPa | 0V | 00:00:00 | 00:00:00 | 00:00:00 | |
| RDZBGO | 2026-09-06 00:28:30 | 41.80986 | 8.79504 | 268° | 11km/h | 20035m | 5.2m/s | 0°C | 0% | 0hPa | 0V | 00:00:00 | 00:00:00 | 00:00:00 | |
| RDZ2B | 2026-09-06 00:28:12 | 41.80967 | 8.79523 | 134° | 5km/h | 19962m | 5.6m/s | 0°C | 0% | 0hPa | 0V | 00:00:00 | 00:00:00 | 00:00:00 | |
| RDZBGO | 2026-09-06 00:28:09 | 41.80969 | 8.79517 | 5° | 7km/h | 19948m | 4.7m/s | 0°C | 0% | 0hPa | 0V | 00:00:00 | 00:00:00 | 00:00:00 | |
| RDZ2B | 2026-09-06 00:27:52 | 41.80940 | 8.79489 | 107° | 11km/h | 19874m | 3.2m/s | 0°C | 0% | 0hPa | 0V | 00:00:00 | 00:00:00 | 00:00:00 | |
| RDZBGO | 2026-09-06 00:27:48 | 41.80930 | 8.79481 | 21° | 18km/h | 19857m | 3.9m/s | 0°C | 0% | 0hPa | 0V | 00:00:00 | 00:00:00 | 00:00:00 | |
| RDZ2B | 2026-09-06 00:27:31 | 41.80899 | 8.79453 | 23° | 13km/h | 19781m | 5.3m/s | 0°C | 0% | 0hPa | 0V | 00:00:00 | 00:00:00 | 00:00:00 | |
| RDZBGO | 2026-09-06 00:27:28 | 41.80894 | 8.79454 | 0° | 0km/h | 19767m | 5.6m/s | 0°C | 0% | 0hPa | 0V | 00:00:00 | 00:00:00 | 00:00:00 | |
| RDZ2B | 2026-09-06 00:27:10 | 41.80882 | 8.79413 | 69° | 13km/h | 19687m | 5.3m/s | 0°C | 0% | 0hPa | 0V | 00:00:00 | 00:00:00 | 00:00:00 | |
| RDZBGO | 2026-09-06 00:27:08 | 41.80878 | 8.79403 | 59° | 22km/h | 19677m | 5.2m/s | 0°C | 0% | 0hPa | 0V | 00:00:00 | 00:00:00 | 00:00:00 | |
| RDZ2B | 2026-09-06 00:26:50 | 41.80817 | 8.79308 | 55° | 26km/h | 19595m | 3.3m/s | 0°C | 0% | 0hPa | 0V | 00:00:00 | 00:00:00 | 00:00:00 | |
| RDZBGO | 2026-09-06 00:26:47 | 41.80803 | 8.79301 | 345° | 16km/h | 19580m | 3.8m/s | 0°C | 0% | 0hPa | 0V | 00:00:00 | 00:00:00 | 00:00:00 | |
| RDZ2B | 2026-09-06 00:26:29 | 41.80749 | 8.79268 | 49° | 15km/h | 19497m | 4.9m/s | 0°C | 0% | 0hPa | 0V | 00:00:00 | 00:00:00 | 00:00:00 | |
| RDZBGO | 2026-09-06 00:26:27 | 41.80742 | 8.79260 | 26° | 18km/h | 19487m | 4.6m/s | 0°C | 0% | 0hPa | 0V | 00:00:00 | 00:00:00 | 00:00:00 | |
| RDZ2B | 2026-09-06 00:26:08 | 41.80712 | 8.79263 | 295° | 7km/h | 19400m | 5.1m/s | 0°C | 0% | 0hPa | 0V | 00:00:00 | 00:00:00 | 00:00:00 | |
| RDZBGO | 2026-09-06 00:26:07 | 41.80711 | 8.79266 | 294° | 11km/h | 19396m | 3.9m/s | 0°C | 0% | 0hPa | 0V | 00:00:00 | 00:00:00 | 00:00:00 | |
| RDZBGO | 2026-09-06 00:25:47 | 41.80732 | 8.79317 | 262° | 15km/h | 19306m | 4.2m/s | 0°C | 0% | 0hPa | 0V | 00:00:00 | 00:00:00 | 00:00:00 | |
| RDZBGO | 2026-09-06 00:25:27 | 41.80793 | 8.79324 | 100° | 18km/h | 19214m | 4.9m/s | 0°C | 0% | 0hPa | 0V | 00:00:00 | 00:00:00 | 00:00:00 | |
| RDZBGO | 2026-09-06 00:25:06 | 41.80869 | 8.79268 | 112° | 16km/h | 19127m | 3.4m/s | 0°C | 0% | 0hPa | 0V | 00:00:00 | 00:00:00 | 00:00:00 | |
| RDZ2B | 2026-09-06 00:24:58 | 41.80883 | 8.79234 | 135° | 16km/h | 19091m | 5.7m/s | 0°C | 0% | 0hPa | 0V | 00:00:00 | 00:00:00 | 00:00:00 | |
| RDZBGO | 2026-09-06 00:24:46 | 41.80896 | 8.79184 | 72° | 5km/h | 19035m | 4.3m/s | 0°C | 0% | 0hPa | 0V | 00:00:00 | 00:00:00 | 00:00:00 | |
| RDZ2B | 2026-09-06 00:24:30 | 41.80873 | 8.79085 | 77° | 15km/h | 18964m | 2.8m/s | 0°C | 0% | 0hPa | 0V | 00:00:00 | 00:00:00 | 00:00:00 | |
| RDZBGO | 2026-09-06 00:24:25 | 41.80853 | 8.79059 | 64° | 27km/h | 18941m | 4.9m/s | 0°C | 0% | 0hPa | 0V | 00:00:00 | 00:00:00 | 00:00:00 | |
| IW2NTF | 2026-09-06 00:24:17 | 41.80817 | 8.78966 | 92° | 22km/h | 18888m | 2.9m/s | 0°C | 0% | 0hPa | 0V | 00:00:00 | 00:00:00 | 00:00:00 | |
| IW2NTF | 2026-09-06 00:24:07 | 41.80778 | 8.78911 | 25° | 15km/h | 18842m | 5.5m/s | 0°C | 0% | 0hPa | 0V | 00:00:00 | 00:00:00 | 00:00:00 | |
| RDZ2B | 2026-09-06 00:24:07 | 41.80792 | 8.78942 | 71° | 18km/h | 18863m | 4.7m/s | 0°C | 0% | 0hPa | 0V | 00:00:00 | 00:00:00 | 00:00:00 | |
| RDZBGO | 2026-09-06 00:24:05 | 41.80790 | 8.78927 | 70° | 26km/h | 18855m | 4.5m/s | 0°C | 0% | 0hPa | 0V | 00:00:00 | 00:00:00 | 00:00:00 | |
| RDZBGO | 2026-09-06 00:23:44 | 41.80750 | 8.78844 | 151° | 5km/h | 18759m | 5.7m/s | 0°C | 0% | 0hPa | 0V | 00:00:00 | 00:00:00 | 00:00:00 | |
| RDZ2B | 2026-09-06 00:23:40 | 41.80751 | 8.78835 | 51° | 15km/h | 18741m | 4.6m/s | 0°C | 0% | 0hPa | 0V | 00:00:00 | 00:00:00 | 00:00:00 | |
| RDZBGO | 2026-09-06 00:23:24 | 41.80780 | 8.78789 | 163° | 18km/h | 18670m | 2.8m/s | 0°C | 0% | 0hPa | 0V | 00:00:00 | 00:00:00 | 00:00:00 | |
| RDZBGO | 2026-09-06 00:23:02 | 41.80869 | 8.78699 | 141° | 35km/h | 18574m | 4.6m/s | 0°C | 0% | 0hPa | 0V | 00:00:00 | 00:00:00 | 00:00:00 | |
| RDZ2B | 2026-09-06 00:22:59 | 41.80882 | 8.78681 | 138° | 15km/h | 18560m | 4.3m/s | 0°C | 0% | 0hPa | 0V | 00:00:00 | 00:00:00 | 00:00:00 | |
| IW2NTF | 2026-09-06 00:22:47 | 41.80944 | 8.78586 | 116° | 31km/h | 18488m | 5m/s | 0°C | 0% | 0hPa | 0V | 00:00:00 | 00:00:00 | 00:00:00 | |
| RDZBGO | 2026-09-06 00:22:41 | 41.80951 | 8.78569 | 121° | 26km/h | 18479m | 4.4m/s | 0°C | 0% | 0hPa | 0V | 00:00:00 | 00:00:00 | 00:00:00 | |
| RDZ2B | 2026-09-06 00:22:33 | 41.80979 | 8.78510 | 115° | 42km/h | 18443m | 4.4m/s | 0°C | 0% | 0hPa | 0V | 00:00:00 | 00:00:00 | 00:00:00 | |
| RDZBGO | 2026-09-06 00:22:21 | 41.81017 | 8.78399 | 124° | 37km/h | 18391m | 4.5m/s | 0°C | 0% | 0hPa | 0V | 00:00:00 | 00:00:00 | 00:00:00 | |
| RDZ2B | 2026-09-06 00:22:12 | 41.81038 | 8.78307 | 94° | 51km/h | 18351m | 4.0m/s | 0°C | 0% | 0hPa | 0V | 00:00:00 | 00:00:00 | 00:00:00 | |
| RDZBGO | 2026-09-06 00:21:59 | 41.81038 | 8.78191 | 101° | 26km/h | 18295m | 4.3m/s | 0°C | 0% | 0hPa | 0V | 00:00:00 | 00:00:00 | 00:00:00 | |
| RDZ2B | 2026-09-06 00:21:51 | 41.81038 | 8.78132 | 85° | 16km/h | 18259m | 5.2m/s | 0°C | 0% | 0hPa | 0V | 00:00:00 | 00:00:00 | 00:00:00 | |
| RDZBGO | 2026-09-06 00:21:39 | 41.81038 | 8.78053 | 102° | 22km/h | 18205m | 4.5m/s | 0°C | 0% | 0hPa | 0V | 00:00:00 | 00:00:00 | 00:00:00 | |
| RDZ2B | 2026-09-06 00:21:31 | 41.81019 | 8.78009 | 55° | 15km/h | 18170m | 2.7m/s | 0°C | 0% | 0hPa | 0V | 00:00:00 | 00:00:00 | 00:00:00 | |
| RDZ2B | 2026-09-06 00:21:10 | 41.81011 | 8.77882 | 123° | 20km/h | 18076m | 3.1m/s | 0°C | 0% | 0hPa | 0V | 00:00:00 | 00:00:00 | 00:00:00 | |
| RDZBGO | 2026-09-06 00:20:57 | 41.81005 | 8.77818 | 69° | 13km/h | 18017m | 5.1m/s | 0°C | 0% | 0hPa | 0V | 00:00:00 | 00:00:00 | 00:00:00 | |
| RDZ2B | 2026-09-06 00:20:48 | 41.80996 | 8.77789 | 76° | 16km/h | 17978m | 5.2m/s | 0°C | 0% | 0hPa | 0V | 00:00:00 | 00:00:00 | 00:00:00 | |
| RDZBGO | 2026-09-06 00:20:37 | 41.80995 | 8.77764 | 286° | 15km/h | 17931m | 0.7m/s | 0°C | 0% | 0hPa | 0V | 00:00:00 | 00:00:00 | 00:00:00 | |
| RDZ2B | 2026-09-06 00:20:19 | 41.81019 | 8.77712 | 152° | 15km/h | 17851m | 3.6m/s | 0°C | 0% | 0hPa | 0V | 00:00:00 | 00:00:00 | 00:00:00 | |
| RDZBGO | 2026-09-06 00:20:15 | 41.81031 | 8.77684 | 94° | 18km/h | 17834m | 5.3m/s | 0°C | 0% | 0hPa | 0V | 00:00:00 | 00:00:00 | 00:00:00 | |
| IW2NTF | 2026-09-06 00:20:00 | 41.81059 | 8.77620 | 113° | 22km/h | 17762m | 5m/s | 0°C | 0% | 0hPa | 0V | 00:00:00 | 00:00:00 | 00:00:00 | |
| RDZ2B | 2026-09-06 00:19:59 | 41.81057 | 8.77627 | 101° | 18km/h | 17766m | 3.8m/s | 0°C | 0% | 0hPa | 0V | 00:00:00 | 00:00:00 | 00:00:00 | |
| RDZBGO | 2026-09-06 00:19:54 | 41.81068 | 8.77608 | 205° | 5km/h | 17745m | 2.8m/s | 0°C | 0% | 0hPa | 0V | 00:00:00 | 00:00:00 | 00:00:00 | |
| RDZBGO | 2026-09-06 00:19:34 | 41.81133 | 8.77517 | 133° | 33km/h | 17660m | 5.8m/s | 0°C | 0% | 0hPa | 0V | 00:00:00 | 00:00:00 | 00:00:00 | |
| RDZBGO | 2026-09-06 00:19:13 | 41.81233 | 8.77370 | 141° | 40km/h | 17573m | 4.8m/s | 0°C | 0% | 0hPa | 0V | 00:00:00 | 00:00:00 | 00:00:00 | |
| RDZBGO | 2026-09-06 00:18:52 | 41.81364 | 8.77190 | 144° | 38km/h | 17485m | 3.8m/s | 0°C | 0% | 0hPa | 0V | 00:00:00 | 00:00:00 | 00:00:00 | |
| RDZBGO | 2026-09-06 00:18:32 | 41.81484 | 8.76985 | 112° | 38km/h | 17402m | 6.3m/s | 0°C | 0% | 0hPa | 0V | 00:00:00 | 00:00:00 | 00:00:00 | |
| RDZBGO | 2026-09-06 00:18:12 | 41.81566 | 8.76756 | 124° | 38km/h | 17317m | 2.4m/s | 0°C | 0% | 0hPa | 0V | 00:00:00 | 00:00:00 | 00:00:00 | |
| RDZBGO | 2026-09-06 00:17:51 | 41.81656 | 8.76518 | 107° | 37km/h | 17233m | 5.3m/s | 0°C | 0% | 0hPa | 0V | 00:00:00 | 00:00:00 | 00:00:00 | |
| RDZ2B | 2026-09-06 00:17:39 | 41.81695 | 8.76379 | 110° | 47km/h | 17183m | 5.2m/s | 0°C | 0% | 0hPa | 0V | 00:00:00 | 00:00:00 | 00:00:00 | |
| RDZBGO | 2026-09-06 00:17:31 | 41.81714 | 8.76285 | 113° | 46km/h | 17150m | 4.3m/s | 0°C | 0% | 0hPa | 0V | 00:00:00 | 00:00:00 | 00:00:00 | |
| RDZBGO | 2026-09-06 00:17:11 | 41.81725 | 8.76059 | 94° | 31km/h | 17066m | 3.8m/s | 0°C | 0% | 0hPa | 0V | 00:00:00 | 00:00:00 | 00:00:00 | |
| RDZ2B | 2026-09-06 00:17:04 | 41.81727 | 8.75988 | 108° | 33km/h | 17037m | 3.2m/s | 0°C | 0% | 0hPa | 0V | 00:00:00 | 00:00:00 | 00:00:00 | |
| RDZBGO | 2026-09-06 00:16:50 | 41.81753 | 8.75827 | 100° | 35km/h | 16978m | 4.1m/s | 0°C | 0% | 0hPa | 0V | 00:00:00 | 00:00:00 | 00:00:00 | |
| RDZBGO | 2026-09-06 00:16:29 | 41.81818 | 8.75590 | 110° | 38km/h | 16890m | 3.9m/s | 0°C | 0% | 0hPa | 0V | 00:00:00 | 00:00:00 | 00:00:00 | |
| RDZBGO | 2026-09-06 00:16:09 | 41.81871 | 8.75318 | 94° | 46km/h | 16804m | 4.1m/s | 0°C | 0% | 0hPa | 0V | 00:00:00 | 00:00:00 | 00:00:00 | |
| RDZ2B | 2026-09-06 00:15:59 | 41.81887 | 8.75185 | 106° | 42km/h | 16762m | 4.0m/s | 0°C | 0% | 0hPa | 0V | 00:00:00 | 00:00:00 | 00:00:00 | |
| RDZBGO | 2026-09-06 00:15:49 | 41.81900 | 8.75054 | 102° | 35km/h | 16719m | 3.5m/s | 0°C | 0% | 0hPa | 0V | 00:00:00 | 00:00:00 | 00:00:00 | |
| RDZ2B | 2026-09-06 00:15:38 | 41.81911 | 8.74929 | 99° | 26km/h | 16673m | 4.3m/s | 0°C | 0% | 0hPa | 0V | 00:00:00 | 00:00:00 | 00:00:00 | |
| RDZBGO | 2026-09-06 00:15:28 | 41.81918 | 8.74832 | 106° | 16km/h | 16630m | 4.3m/s | 0°C | 0% | 0hPa | 0V | 00:00:00 | 00:00:00 | 00:00:00 | |
| RDZ2B | 2026-09-06 00:15:17 | 41.81935 | 8.74728 | 109° | 27km/h | 16586m | 4.8m/s | 0°C | 0% | 0hPa | 0V | 00:00:00 | 00:00:00 | 00:00:00 | |
| RDZBGO | 2026-09-06 00:15:08 | 41.81947 | 8.74646 | 97° | 26km/h | 16549m | 4.8m/s | 0°C | 0% | 0hPa | 0V | 00:00:00 | 00:00:00 | 00:00:00 | |
| RDZ2B | 2026-09-06 00:14:54 | 41.81929 | 8.74528 | 74° | 35km/h | 16492m | 2.9m/s | 0°C | 0% | 0hPa | 0V | 00:00:00 | 00:00:00 | 00:00:00 | |
| RDZBGO | 2026-09-06 00:14:45 | 41.81912 | 8.74450 | 73° | 27km/h | 16456m | 3.5m/s | 0°C | 0% | 0hPa | 0V | 00:00:00 | 00:00:00 | 00:00:00 | |
| RDZ2B | 2026-09-06 00:14:34 | 41.81884 | 8.74342 | 78° | 33km/h | 16413m | 3.3m/s | 0°C | 0% | 0hPa | 0V | 00:00:00 | 00:00:00 | 00:00:00 | |
| RDZBGO | 2026-09-06 00:14:21 | 41.81860 | 8.74208 | 78° | 37km/h | 16360m | 5.2m/s | 0°C | 0% | 0hPa | 0V | 00:00:00 | 00:00:00 | 00:00:00 | |
| RDZ2B | 2026-09-06 00:14:12 | 41.81838 | 8.74127 | 68° | 26km/h | 16322m | 3.8m/s | 0°C | 0% | 0hPa | 0V | 00:00:00 | 00:00:00 | 00:00:00 | |
| RDZBGO | 2026-09-06 00:14:01 | 41.81816 | 8.74030 | 70° | 31km/h | 16275m | 2.8m/s | 0°C | 0% | 0hPa | 0V | 00:00:00 | 00:00:00 | 00:00:00 | |
| RDZ2B | 2026-09-06 00:13:52 | 41.81810 | 8.73956 | 92° | 31km/h | 16240m | 3.7m/s | 0°C | 0% | 0hPa | 0V | 00:00:00 | 00:00:00 | 00:00:00 | |
| RDZBGO | 2026-09-06 00:13:40 | 41.81813 | 8.73866 | 96° | 22km/h | 16190m | 4.8m/s | 0°C | 0% | 0hPa | 0V | 00:00:00 | 00:00:00 | 00:00:00 | |
| RDZ2B | 2026-09-06 00:13:31 | 41.81814 | 8.73804 | 100° | 16km/h | 16153m | 5.2m/s | 0°C | 0% | 0hPa | 0V | 00:00:00 | 00:00:00 | 00:00:00 | |
| RDZBGO | 2026-09-06 00:13:20 | 41.81824 | 8.73744 | 142° | 15km/h | 16108m | 4.7m/s | 0°C | 0% | 0hPa | 0V | 00:00:00 | 00:00:00 | 00:00:00 | |
| RDZ2B | 2026-09-06 00:13:11 | 41.81840 | 8.73691 | 132° | 13km/h | 16065m | 3.8m/s | 0°C | 0% | 0hPa | 0V | 00:00:00 | 00:00:00 | 00:00:00 | |
| RDZBGO | 2026-09-06 00:12:59 | 41.81866 | 8.73636 | 92° | 9km/h | 16015m | 3.4m/s | 0°C | 0% | 0hPa | 0V | 00:00:00 | 00:00:00 | 00:00:00 | |
| RDZ2B | 2026-09-06 00:12:51 | 41.81878 | 8.73578 | 114° | 24km/h | 15984m | 4.2m/s | 0°C | 0% | 0hPa | 0V | 00:00:00 | 00:00:00 | 00:00:00 | |
| RDZBGO | 2026-09-06 00:12:38 | 41.81914 | 8.73474 | 109° | 37km/h | 15929m | 4.3m/s | 0°C | 0% | 0hPa | 0V | 00:00:00 | 00:00:00 | 00:00:00 | |
| RDZ2B | 2026-09-06 00:12:30 | 41.81938 | 8.73400 | 119° | 29km/h | 15894m | 3.4m/s | 0°C | 0% | 0hPa | 0V | 00:00:00 | 00:00:00 | 00:00:00 | |
| RDZBGO | 2026-09-06 00:12:18 | 41.81965 | 8.73286 | 114° | 22km/h | 15843m | 4.5m/s | 0°C | 0% | 0hPa | 0V | 00:00:00 | 00:00:00 | 00:00:00 | |
| RDZBGO | 2026-09-06 00:11:54 | 41.82000 | 8.73019 | 107° | 38km/h | 15744m | 3.2m/s | 0°C | 0% | 0hPa | 0V | 00:00:00 | 00:00:00 | 00:00:00 | |
| RDZ2B | 2026-09-06 00:11:50 | 41.82000 | 8.72972 | 78° | 31km/h | 15727m | 4.6m/s | 0°C | 0% | 0hPa | 0V | 00:00:00 | 00:00:00 | 00:00:00 | |
| RDZ2B | 2026-09-06 00:11:30 | 41.81991 | 8.72721 | 39° | 35km/h | 15645m | 5.4m/s | 0°C | 0% | 0hPa | 0V | 00:00:00 | 00:00:00 | 00:00:00 | |
| RDZ2B | 2026-09-06 00:11:08 | 41.81986 | 8.72489 | 96° | 35km/h | 15551m | 5.0m/s | 0°C | 0% | 0hPa | 0V | 00:00:00 | 00:00:00 | 00:00:00 | |
| RDZBGO | 2026-09-06 00:11:01 | 41.81986 | 8.72429 | 85° | 26km/h | 15521m | 4.1m/s | 0°C | 0% | 0hPa | 0V | 00:00:00 | 00:00:00 | 00:00:00 | |
| RDZ2B | 2026-09-06 00:10:48 | 41.81989 | 8.72317 | 103° | 27km/h | 15466m | 3.2m/s | 0°C | 0% | 0hPa | 0V | 00:00:00 | 00:00:00 | 00:00:00 | |
| RDZBGO | 2026-09-06 00:10:41 | 41.81987 | 8.72262 | 80° | 27km/h | 15435m | 4.0m/s | 0°C | 0% | 0hPa | 0V | 00:00:00 | 00:00:00 | 00:00:00 | |
| RDZ2B | 2026-09-06 00:10:27 | 41.81979 | 8.72165 | 100° | 11km/h | 15377m | 4.7m/s | 0°C | 0% | 0hPa | 0V | 00:00:00 | 00:00:00 | 00:00:00 | |
| RDZBGO | 2026-09-06 00:10:20 | 41.81976 | 8.72127 | 106° | 15km/h | 15349m | 4.7m/s | 0°C | 0% | 0hPa | 0V | 00:00:00 | 00:00:00 | 00:00:00 | |
| RDZ2B | 2026-09-06 00:10:08 | 41.81984 | 8.72067 | 106° | 13km/h | 15293m | 3.3m/s | 0°C | 0% | 0hPa | 0V | 00:00:00 | 00:00:00 | 00:00:00 | |
| RDZBGO | 2026-09-06 00:09:57 | 41.81990 | 8.72037 | 95° | 11km/h | 15250m | 4.4m/s | 0°C | 0% | 0hPa | 0V | 00:00:00 | 00:00:00 | 00:00:00 | |
| RDZ2B | 2026-09-06 00:09:47 | 41.81999 | 8.71991 | 94° | 16km/h | 15210m | 4.9m/s | 0°C | 0% | 0hPa | 0V | 00:00:00 | 00:00:00 | 00:00:00 | |
| RDZBGO | 2026-09-06 00:09:36 | 41.81998 | 8.71927 | 109° | 15km/h | 15163m | 3.0m/s | 0°C | 0% | 0hPa | 0V | 00:00:00 | 00:00:00 | 00:00:00 | |
| RDZ2B | 2026-09-06 00:09:26 | 41.82011 | 8.71887 | 137° | 5km/h | 15122m | 3.3m/s | 0°C | 0% | 0hPa | 0V | 00:00:00 | 00:00:00 | 00:00:00 | |
| RDZBGO | 2026-09-06 00:09:13 | 41.82029 | 8.71830 | 150° | 11km/h | 15067m | 4.9m/s | 0°C | 0% | 0hPa | 0V | 00:00:00 | 00:00:00 | 00:00:00 | |
| RDZ2B | 2026-09-06 00:09:06 | 41.82045 | 8.71799 | 127° | 18km/h | 15039m | 4.3m/s | 0°C | 0% | 0hPa | 0V | 00:00:00 | 00:00:00 | 00:00:00 | |
| RDZBGO | 2026-09-06 00:08:53 | 41.82077 | 8.71727 | 116° | 20km/h | 14985m | 4.8m/s | 0°C | 0% | 0hPa | 0V | 00:00:00 | 00:00:00 | 00:00:00 | |
| RDZ2B | 2026-09-06 00:08:45 | 41.82101 | 8.71691 | 129° | 22km/h | 14950m | 4.9m/s | 0°C | 0% | 0hPa | 0V | 00:00:00 | 00:00:00 | 00:00:00 | |
| RDZBGO | 2026-09-06 00:08:32 | 41.82154 | 8.71627 | 143° | 29km/h | 14897m | 3.6m/s | 0°C | 0% | 0hPa | 0V | 00:00:00 | 00:00:00 | 00:00:00 | |
| RDZ2B | 2026-09-06 00:08:25 | 41.82185 | 8.71595 | 125° | 27km/h | 14866m | 4.9m/s | 0°C | 0% | 0hPa | 0V | 00:00:00 | 00:00:00 | 00:00:00 | |
| RDZBGO | 2026-09-06 00:08:11 | 41.82244 | 8.71514 | 140° | 24km/h | 14808m | 4.8m/s | 0°C | 0% | 0hPa | 0V | 00:00:00 | 00:00:00 | 00:00:00 | |
| RDZ2B | 2026-09-06 00:08:04 | 41.82264 | 8.71465 | 105° | 22km/h | 14777m | 4.3m/s | 0°C | 0% | 0hPa | 0V | 00:00:00 | 00:00:00 | 00:00:00 | |
| RDZBGO | 2026-09-06 00:07:50 | 41.82299 | 8.71362 | 108° | 31km/h | 14719m | 3.8m/s | 0°C | 0% | 0hPa | 0V | 00:00:00 | 00:00:00 | 00:00:00 | |
| RDZ2B | 2026-09-06 00:07:43 | 41.82305 | 8.71311 | 106° | 24km/h | 14690m | 4.4m/s | 0°C | 0% | 0hPa | 0V | 00:00:00 | 00:00:00 | 00:00:00 | |
| RDZBGO | 2026-09-06 00:07:30 | 41.82307 | 8.71207 | 86° | 26km/h | 14638m | 5.3m/s | 0°C | 0% | 0hPa | 0V | 00:00:00 | 00:00:00 | 00:00:00 | |
| RDZ2B | 2026-09-06 00:07:23 | 41.82302 | 8.71155 | 89° | 26km/h | 14608m | 3.6m/s | 0°C | 0% | 0hPa | 0V | 00:00:00 | 00:00:00 | 00:00:00 | |
| RDZBGO | 2026-09-06 00:07:09 | 41.82301 | 8.71046 | 77° | 20km/h | 14550m | 4.0m/s | 0°C | 0% | 0hPa | 0V | 00:00:00 | 00:00:00 | 00:00:00 | |
| RDZ2B | 2026-09-06 00:07:02 | 41.82289 | 8.70985 | 85° | 29km/h | 14521m | 4.8m/s | 0°C | 0% | 0hPa | 0V | 00:00:00 | 00:00:00 | 00:00:00 | |
| RDZBGO | 2026-09-06 00:06:48 | 41.82263 | 8.70877 | 47° | 24km/h | 14462m | 3.8m/s | 0°C | 0% | 0hPa | 0V | 00:00:00 | 00:00:00 | 00:00:00 | |
| RDZ2B | 2026-09-06 00:06:42 | 41.82254 | 8.70837 | 64° | 11km/h | 14437m | 4.3m/s | 0°C | 0% | 0hPa | 0V | 00:00:00 | 00:00:00 | 00:00:00 | |
| RDZBGO | 2026-09-06 00:06:27 | 41.82237 | 8.70762 | 74° | 16km/h | 14377m | 3.6m/s | 0°C | 0% | 0hPa | 0V | 00:00:00 | 00:00:00 | 00:00:00 | |
| RDZ2B | 2026-09-06 00:06:22 | 41.82233 | 8.70739 | 98° | 16km/h | 14357m | 3.4m/s | 0°C | 0% | 0hPa | 0V | 00:00:00 | 00:00:00 | 00:00:00 | |
| RDZBGO | 2026-09-06 00:06:07 | 41.82232 | 8.70682 | 122° | 11km/h | 14288m | 3.9m/s | 0°C | 0% | 0hPa | 0V | 00:00:00 | 00:00:00 | 00:00:00 | |
| RDZ2B | 2026-09-06 00:06:01 | 41.82239 | 8.70667 | 102° | 13km/h | 14268m | 3.5m/s | 0°C | 0% | 0hPa | 0V | 00:00:00 | 00:00:00 | 00:00:00 | |
| RDZBGO | 2026-09-06 00:05:45 | 41.82265 | 8.70632 | 123° | 15km/h | 14203m | 5.2m/s | 0°C | 0% | 0hPa | 0V | 00:00:00 | 00:00:00 | 00:00:00 | |
| RDZ2B | 2026-09-06 00:05:40 | 41.82271 | 8.70617 | 0° | 0km/h | 14181m | 4.5m/s | 0°C | 0% | 0hPa | 0V | 00:00:00 | 00:00:00 | 00:00:00 | |
| RDZBGO | 2026-09-06 00:05:25 | 41.82276 | 8.70583 | 355° | 4km/h | 14113m | 3.9m/s | 0°C | 0% | 0hPa | 0V | 00:00:00 | 00:00:00 | 00:00:00 | |
| RDZ2B | 2026-09-06 00:05:20 | 41.82275 | 8.70576 | 198° | 4km/h | 14091m | 3.4m/s | 0°C | 0% | 0hPa | 0V | 00:00:00 | 00:00:00 | 00:00:00 | |
| RDZBGO | 2026-09-06 00:05:04 | 41.82299 | 8.70572 | 221° | 9km/h | 14028m | 4.4m/s | 0°C | 0% | 0hPa | 0V | 00:00:00 | 00:00:00 | 00:00:00 | |
| RDZ2B | 2026-09-06 00:05:00 | 41.82304 | 8.70569 | 239° | 5km/h | 14003m | 3.6m/s | 0°C | 0% | 0hPa | 0V | 00:00:00 | 00:00:00 | 00:00:00 | |
| RDZBGO | 2026-09-06 00:04:44 | 41.82334 | 8.70570 | 156° | 13km/h | 13947m | 3.5m/s | 0°C | 0% | 0hPa | 0V | 00:00:00 | 00:00:00 | 00:00:00 | |
| RDZ2B | 2026-09-06 00:04:37 | 41.82344 | 8.70565 | 186° | 9km/h | 13919m | 3.8m/s | 0°C | 0% | 0hPa | 0V | 00:00:00 | 00:00:00 | 00:00:00 | |
| RDZBGO | 2026-09-06 00:04:23 | 41.82377 | 8.70571 | 100° | 11km/h | 13862m | 3.2m/s | 0°C | 0% | 0hPa | 0V | 00:00:00 | 00:00:00 | 00:00:00 | |
| RDZ2B | 2026-09-06 00:04:16 | 41.82396 | 8.70574 | 96° | 9km/h | 13834m | 3.7m/s | 0°C | 0% | 0hPa | 0V | 00:00:00 | 00:00:00 | 00:00:00 | |
| RDZBGO | 2026-09-06 00:04:03 | 41.82423 | 8.70566 | 176° | 13km/h | 13779m | 4.8m/s | 0°C | 0% | 0hPa | 0V | 00:00:00 | 00:00:00 | 00:00:00 | |
| RDZ2B | 2026-09-06 00:03:57 | 41.82440 | 8.70566 | 174° | 15km/h | 13750m | 3.7m/s | 0°C | 0% | 0hPa | 0V | 00:00:00 | 00:00:00 | 00:00:00 | |
| RDZBGO | 2026-09-06 00:03:41 | 41.82471 | 8.70555 | 174° | 15km/h | 13684m | 4.3m/s | 0°C | 0% | 0hPa | 0V | 00:00:00 | 00:00:00 | 00:00:00 | |
| RDZ2B | 2026-09-06 00:03:36 | 41.82480 | 8.70541 | 229° | 11km/h | 13663m | 4.8m/s | 0°C | 0% | 0hPa | 0V | 00:00:00 | 00:00:00 | 00:00:00 | |
| RDZBGO | 2026-09-06 00:03:22 | 41.82494 | 8.70549 | 306° | 5km/h | 13590m | 4.4m/s | 0°C | 0% | 0hPa | 0V | 00:00:00 | 00:00:00 | 00:00:00 | |
| RDZ2B | 2026-09-06 00:03:18 | 41.82491 | 8.70547 | 151° | 5km/h | 13574m | 3.7m/s | 0°C | 0% | 0hPa | 0V | 00:00:00 | 00:00:00 | 00:00:00 | |
| RDZBGO | 2026-09-06 00:03:08 | 41.82482 | 8.70577 | 252° | 5km/h | 13505m | 4.5m/s | 0°C | 0% | 0hPa | 0V | 00:00:00 | 00:00:00 | 00:00:00 | |
| RDZ2B | 2026-09-06 00:03:01 | 41.82469 | 8.70592 | 273° | 9km/h | 13480m | 5.1m/s | 0°C | 0% | 0hPa | 0V | 00:00:00 | 00:00:00 | 00:00:00 | |
| RDZBGO | 2026-09-06 00:02:43 | 41.82438 | 8.70635 | 355° | 18km/h | 13404m | 4.4m/s | 0°C | 0% | 0hPa | 0V | 00:00:00 | 00:00:00 | 00:00:00 | |
| RDZ2B | 2026-09-06 00:02:31 | 41.82412 | 8.70658 | 338° | 22km/h | 13370m | 4.7m/s | 0°C | 0% | 0hPa | 0V | 00:00:00 | 00:00:00 | 00:00:00 | |
| RDZBGO | 2026-09-06 00:02:17 | 41.82362 | 8.70694 | 320° | 11km/h | 13312m | 3.0m/s | 0°C | 0% | 0hPa | 0V | 00:00:00 | 00:00:00 | 00:00:00 | |
| RDZ2B | 2026-09-06 00:02:07 | 41.82331 | 8.70734 | 319° | 22km/h | 13274m | 5.9m/s | 0°C | 0% | 0hPa | 0V | 00:00:00 | 00:00:00 | 00:00:00 | |
| RDZBGO | 2026-09-06 00:01:58 | 41.82277 | 8.70821 | 283° | 13km/h | 13212m | 4.3m/s | 0°C | 0% | 0hPa | 0V | 00:00:00 | 00:00:00 | 00:00:00 | |
| RDZ2B | 2026-09-06 00:01:49 | 41.82243 | 8.70883 | 313° | 22km/h | 13169m | 4.4m/s | 0°C | 0% | 0hPa | 0V | 00:00:00 | 00:00:00 | 00:00:00 | |
| RDZBGO | 2026-09-06 00:01:35 | 41.82214 | 8.70984 | 264° | 24km/h | 13109m | 3.9m/s | 0°C | 0% | 0hPa | 0V | 00:00:00 | 00:00:00 | 00:00:00 | |
| RDZ2B | 2026-09-06 00:01:25 | 41.82204 | 8.71060 | 271° | 16km/h | 13068m | 5.2m/s | 0°C | 0% | 0hPa | 0V | 00:00:00 | 00:00:00 | 00:00:00 | |
| RDZBGO | 2026-09-06 00:01:15 | 41.82193 | 8.71135 | 298° | 26km/h | 13022m | 4.8m/s | 0°C | 0% | 0hPa | 0V | 00:00:00 | 00:00:00 | 00:00:00 | |
| RDZBGO | 2026-09-06 00:00:51 | 41.82186 | 8.71306 | 262° | 20km/h | 12937m | 5.1m/s | 0°C | 0% | 0hPa | 0V | 00:00:00 | 00:00:00 | 00:00:00 | |
| RDZBGO | 2026-09-06 00:00:29 | 41.82192 | 8.71473 | 252° | 26km/h | 12852m | 3.3m/s | 0°C | 0% | 0hPa | 0V | 00:00:00 | 00:00:00 | 00:00:00 | |
| RDZBGO | 2026-09-06 00:00:11 | 41.82209 | 8.71621 | 266° | 18km/h | 12771m | 4.2m/s | 0°C | 0% | 0hPa | 0V | 00:00:00 | 00:00:00 | 00:00:00 | |
| RDZBGO | 2026-09-05 23:59:48 | 41.82227 | 8.71785 | 250° | 24km/h | 12683m | 3.8m/s | 0°C | 0% | 0hPa | 0V | 00:00:00 | 00:00:00 | 00:00:00 | |
| RDZBGO | 2026-09-05 23:59:27 | 41.82247 | 8.71956 | 272° | 24km/h | 12597m | 4.4m/s | 0°C | 0% | 0hPa | 0V | 00:00:00 | 00:00:00 | 00:00:00 | |
| RDZBGO | 2026-09-05 23:59:06 | 41.82265 | 8.72125 | 283° | 24km/h | 12512m | 3.2m/s | 0°C | 0% | 0hPa | 0V | 00:00:00 | 00:00:00 | 00:00:00 | |
| RDZBGO | 2026-09-05 23:58:46 | 41.82274 | 8.72292 | 273° | 27km/h | 12432m | 4.8m/s | 0°C | 0% | 0hPa | 0V | 00:00:00 | 00:00:00 | 00:00:00 | |
| RDZBGO | 2026-09-05 23:58:26 | 41.82297 | 8.72440 | 255° | 18km/h | 12348m | 2.8m/s | 0°C | 0% | 0hPa | 0V | 00:00:00 | 00:00:00 | 00:00:00 | |
| RDZBGO | 2026-09-05 23:58:04 | 41.82313 | 8.72598 | 246° | 20km/h | 12262m | 3.3m/s | 0°C | 0% | 0hPa | 0V | 00:00:00 | 00:00:00 | 00:00:00 | |
| RDZBGO | 2026-09-05 23:57:43 | 41.82339 | 8.72755 | 244° | 24km/h | 12178m | 3.0m/s | 0°C | 0% | 0hPa | 0V | 00:00:00 | 00:00:00 | 00:00:00 | |
| RDZBGO | 2026-09-05 23:57:21 | 41.82378 | 8.72916 | 280° | 22km/h | 12086m | 3.9m/s | 0°C | 0% | 0hPa | 0V | 00:00:00 | 00:00:00 | 00:00:00 | |
| RDZBGO | 2026-09-05 23:57:01 | 41.82419 | 8.73073 | 230° | 27km/h | 12005m | 2.9m/s | 0°C | 0% | 0hPa | 0V | 00:00:00 | 00:00:00 | 00:00:00 | |
| RDZBGO | 2026-09-05 23:56:40 | 41.82470 | 8.73256 | 249° | 29km/h | 11917m | 5.0m/s | 0°C | 0% | 0hPa | 0V | 00:00:00 | 00:00:00 | 00:00:00 | |
| RDZBGO | 2026-09-05 23:56:19 | 41.82508 | 8.73431 | 260° | 22km/h | 11831m | 4.4m/s | 0°C | 0% | 0hPa | 0V | 00:00:00 | 00:00:00 | 00:00:00 | |
| RDZBGO | 2026-09-05 23:55:58 | 41.82537 | 8.73596 | 282° | 22km/h | 11744m | 3.4m/s | 0°C | 0% | 0hPa | 0V | 00:00:00 | 00:00:00 | 00:00:00 | |
| RDZ2B | 2026-09-05 23:55:55 | 41.82538 | 8.73618 | 241° | 27km/h | 11733m | 4.1m/s | 0°C | 0% | 0hPa | 0V | 00:00:00 | 00:00:00 | 00:00:00 | |
| RDZBGO | 2026-09-05 23:55:37 | 41.82558 | 8.73768 | 251° | 27km/h | 11661m | 4.0m/s | 0°C | 0% | 0hPa | 0V | 00:00:00 | 00:00:00 | 00:00:00 | |
| RDZBGO | 2026-09-05 23:55:16 | 41.82587 | 8.73924 | 236° | 16km/h | 11571m | 4.3m/s | 0°C | 0% | 0hPa | 0V | 00:00:00 | 00:00:00 | 00:00:00 | |
| RDZBGO | 2026-09-05 23:54:55 | 41.82640 | 8.74060 | 245° | 31km/h | 11488m | 3.0m/s | 0°C | 0% | 0hPa | 0V | 00:00:00 | 00:00:00 | 00:00:00 | |
| RDZBGO | 2026-09-05 23:54:35 | 41.82694 | 8.74201 | 237° | 22km/h | 11412m | 4.3m/s | 0°C | 0% | 0hPa | 0V | 00:00:00 | 00:00:00 | 00:00:00 | |
| RDZBGO | 2026-09-05 23:54:15 | 41.82753 | 8.74347 | 261° | 27km/h | 11337m | 4.1m/s | 0°C | 0% | 0hPa | 0V | 00:00:00 | 00:00:00 | 00:00:00 | |
| RDZBGO | 2026-09-05 23:53:54 | 41.82819 | 8.74503 | 235° | 18km/h | 11258m | 4.3m/s | 0°C | 0% | 0hPa | 0V | 00:00:00 | 00:00:00 | 00:00:00 | |
| RDZBGO | 2026-09-05 23:53:33 | 41.82869 | 8.74651 | 234° | 24km/h | 11176m | 4.0m/s | 0°C | 0% | 0hPa | 0V | 00:00:00 | 00:00:00 | 00:00:00 | |
| RDZBGO | 2026-09-05 23:53:14 | 41.82899 | 8.74780 | 240° | 26km/h | 11092m | 3.1m/s | 0°C | 0% | 0hPa | 0V | 00:00:00 | 00:00:00 | 00:00:00 | |
| RDZBGO | 2026-09-05 23:52:52 | 41.82936 | 8.74928 | 253° | 27km/h | 11011m | 4.9m/s | 0°C | 0% | 0hPa | 0V | 00:00:00 | 00:00:00 | 00:00:00 | |
| RDZBGO | 2026-09-05 23:52:32 | 41.82988 | 8.75062 | 255° | 16km/h | 10926m | 3.8m/s | 0°C | 0% | 0hPa | 0V | 00:00:00 | 00:00:00 | 00:00:00 | |
| RDZBGO | 2026-09-05 23:52:11 | 41.83066 | 8.75187 | 236° | 26km/h | 10843m | 3.8m/s | 0°C | 0% | 0hPa | 0V | 00:00:00 | 00:00:00 | 00:00:00 | |
| RDZBGO | 2026-09-05 23:51:51 | 41.83143 | 8.75289 | 219° | 29km/h | 10762m | 3.3m/s | 0°C | 0% | 0hPa | 0V | 00:00:00 | 00:00:00 | 00:00:00 | |
| RDZBGO | 2026-09-05 23:51:30 | 41.83225 | 8.75396 | 215° | 22km/h | 10679m | 4.0m/s | 0°C | 0% | 0hPa | 0V | 00:00:00 | 00:00:00 | 00:00:00 | |
| RDZBGO | 2026-09-05 23:51:10 | 41.83315 | 8.75523 | 241° | 37km/h | 10581m | 4.1m/s | 0°C | 0% | 0hPa | 0V | 00:00:00 | 00:00:00 | 00:00:00 | |
| RDZBGO | 2026-09-05 23:50:45 | 41.83403 | 8.75650 | 258° | 26km/h | 10470m | 3.6m/s | 0°C | 0% | 0hPa | 0V | 00:00:00 | 00:00:00 | 00:00:00 | |
| RDZBGO | 2026-09-05 23:50:25 | 41.83472 | 8.75751 | 209° | 27km/h | 10380m | 4.3m/s | 0°C | 0% | 0hPa | 0V | 00:00:00 | 00:00:00 | 00:00:00 | |
| RDZBGO | 2026-09-05 23:50:05 | 41.83546 | 8.75878 | 226° | 20km/h | 10293m | 4.1m/s | 0°C | 0% | 0hPa | 0V | 00:00:00 | 00:00:00 | 00:00:00 | |
| RDZBGO | 2026-09-05 23:49:44 | 41.83630 | 8.76012 | 236° | 20km/h | 10208m | 5.1m/s | 0°C | 0% | 0hPa | 0V | 00:00:00 | 00:00:00 | 00:00:00 | |
| RDZBGO | 2026-09-05 23:49:23 | 41.83710 | 8.76164 | 244° | 29km/h | 10120m | 5.1m/s | 0°C | 0% | 0hPa | 0V | 00:00:00 | 00:00:00 | 00:00:00 | |
| RDZBGO | 2026-09-05 23:49:01 | 41.83783 | 8.76323 | 243° | 26km/h | 10033m | 4.5m/s | 0°C | 0% | 0hPa | 0V | 00:00:00 | 00:00:00 | 00:00:00 | |
| RDZBGO | 2026-09-05 23:48:41 | 41.83839 | 8.76458 | 233° | 31km/h | 9952m | 3.7m/s | 0°C | 0% | 0hPa | 0V | 00:00:00 | 00:00:00 | 00:00:00 | |
| RDZBGO | 2026-09-05 23:48:20 | 41.83889 | 8.76625 | 242° | 29km/h | 9863m | 3.4m/s | 0°C | 0% | 0hPa | 0V | 00:00:00 | 00:00:00 | 00:00:00 | |
| RDZBGO | 2026-09-05 23:48:00 | 41.83950 | 8.76771 | 230° | 26km/h | 9783m | 4.1m/s | 0°C | 0% | 0hPa | 0V | 00:00:00 | 00:00:00 | 00:00:00 | |
| RDZ2B | 2026-09-05 23:47:46 | 41.84003 | 8.76869 | 223° | 26km/h | 9726m | 3.9m/s | 0°C | 0% | 0hPa | 0V | 00:00:00 | 00:00:00 | 00:00:00 | |
| RDZBGO | 2026-09-05 23:47:39 | 41.84034 | 8.76915 | 224° | 20km/h | 9697m | 3.5m/s | 0°C | 0% | 0hPa | 0V | 00:00:00 | 00:00:00 | 00:00:00 | |
| RDZBGO | 2026-09-05 23:47:14 | 41.84144 | 8.77062 | 235° | 24km/h | 9598m | 4.5m/s | 0°C | 0% | 0hPa | 0V | 00:00:00 | 00:00:00 | 00:00:00 | |
| RDZ2B | 2026-09-05 23:47:08 | 41.84175 | 8.77095 | 240° | 22km/h | 9574m | 4.8m/s | 0°C | 0% | 0hPa | 0V | 00:00:00 | 00:00:00 | 00:00:00 | |
| RDZBGO | 2026-09-05 23:46:52 | 41.84240 | 8.77185 | 226° | 22km/h | 9509m | 4.5m/s | 0°C | 0% | 0hPa | 0V | 00:00:00 | 00:00:00 | 00:00:00 | |
| RDZBGO | 2026-09-05 23:46:31 | 41.84327 | 8.77309 | 251° | 18km/h | 9424m | 2.8m/s | 0°C | 0% | 0hPa | 0V | 00:00:00 | 00:00:00 | 00:00:00 | |
| RDZBGO | 2026-09-05 23:46:08 | 41.84427 | 8.77430 | 207° | 22km/h | 9325m | 3.1m/s | 0°C | 0% | 0hPa | 0V | 00:00:00 | 00:00:00 | 00:00:00 | |
| RDZ2B | 2026-09-05 23:45:52 | 41.84484 | 8.77497 | 188° | 15km/h | 9253m | 3.6m/s | 0°C | 0% | 0hPa | 0V | 00:00:00 | 00:00:00 | 00:00:00 | |
| RDZBGO | 2026-09-05 23:45:47 | 41.84507 | 8.77517 | 241° | 18km/h | 9232m | 3.9m/s | 0°C | 0% | 0hPa | 0V | 00:00:00 | 00:00:00 | 00:00:00 | |
| RDZ2B | 2026-09-05 23:45:27 | 41.84579 | 8.77599 | 233° | 27km/h | 9141m | 5.3m/s | 0°C | 0% | 0hPa | 0V | 00:00:00 | 00:00:00 | 00:00:00 | |
| RDZBGO | 2026-09-05 23:45:21 | 41.84605 | 8.77616 | 245° | 15km/h | 9115m | 3.8m/s | 0°C | 0% | 0hPa | 0V | 00:00:00 | 00:00:00 | 00:00:00 | |
| RDZ2B | 2026-09-05 23:45:05 | 41.84655 | 8.77680 | 230° | 22km/h | 9041m | 3.2m/s | 0°C | 0% | 0hPa | 0V | 00:00:00 | 00:00:00 | 00:00:00 | |
| RDZBGO | 2026-09-05 23:45:01 | 41.84673 | 8.77695 | 224° | 9km/h | 9026m | 3.5m/s | 0°C | 0% | 0hPa | 0V | 00:00:00 | 00:00:00 | 00:00:00 | |
| RDZ2B | 2026-09-05 23:44:44 | 41.84724 | 8.77754 | 212° | 13km/h | 8956m | 4.4m/s | 0°C | 0% | 0hPa | 0V | 00:00:00 | 00:00:00 | 00:00:00 | |
| RDZBGO | 2026-09-05 23:44:39 | 41.84742 | 8.77768 | 213° | 13km/h | 8936m | 4.4m/s | 0°C | 0% | 0hPa | 0V | 00:00:00 | 00:00:00 | 00:00:00 | |
| RDZ2B | 2026-09-05 23:44:20 | 41.84790 | 8.77839 | 231° | 16km/h | 8858m | 4.1m/s | 0°C | 0% | 0hPa | 0V | 00:00:00 | 00:00:00 | 00:00:00 | |
| RDZBGO | 2026-09-05 23:44:16 | 41.84800 | 8.77847 | 208° | 15km/h | 8843m | 3.6m/s | 0°C | 0% | 0hPa | 0V | 00:00:00 | 00:00:00 | 00:00:00 | |
| RDZ2B | 2026-09-05 23:43:54 | 41.84864 | 8.77914 | 235° | 18km/h | 8754m | 5.0m/s | 0°C | 0% | 0hPa | 0V | 00:00:00 | 00:00:00 | 00:00:00 | |
| RDZBGO | 2026-09-05 23:43:45 | 41.84887 | 8.77939 | 250° | 15km/h | 8715m | 4.6m/s | 0°C | 0% | 0hPa | 0V | 00:00:00 | 00:00:00 | 00:00:00 | |
| RDZ2B | 2026-09-05 23:43:33 | 41.84922 | 8.77976 | 200° | 22km/h | 8664m | 3.1m/s | 0°C | 0% | 0hPa | 0V | 00:00:00 | 00:00:00 | 00:00:00 | |
| RDZ2B | 2026-09-05 23:43:13 | 41.84987 | 8.78025 | 183° | 16km/h | 8583m | 4.4m/s | 0°C | 0% | 0hPa | 0V | 00:00:00 | 00:00:00 | 00:00:00 | |
| RDZBGO | 2026-09-05 23:43:09 | 41.84997 | 8.78035 | 244° | 18km/h | 8567m | 3.3m/s | 0°C | 0% | 0hPa | 0V | 00:00:00 | 00:00:00 | 00:00:00 | |
| RDZ2B | 2026-09-05 23:42:46 | 41.85060 | 8.78084 | 222° | 13km/h | 8456m | 3.5m/s | 0°C | 0% | 0hPa | 0V | 00:00:00 | 00:00:00 | 00:00:00 | |
| RDZBGO | 2026-09-05 23:42:43 | 41.85069 | 8.78092 | 223° | 15km/h | 8441m | 6.9m/s | 0°C | 0% | 0hPa | 0V | 00:00:00 | 00:00:00 | 00:00:00 | |
| RDZ2B | 2026-09-05 23:42:22 | 41.85147 | 8.78138 | 205° | 15km/h | 8334m | 4.2m/s | 0°C | 0% | 0hPa | 0V | 00:00:00 | 00:00:00 | 00:00:00 | |
| RDZBGO | 2026-09-05 23:41:46 | 41.85336 | 8.78238 | 208° | 20km/h | 8181m | 4.9m/s | 0°C | 0% | 0hPa | 0V | 00:00:00 | 00:00:00 | 00:00:00 | |
| RDZ2B | 2026-09-05 23:41:26 | 41.85440 | 8.78312 | 191° | 27km/h | 8102m | 3.1m/s | 0°C | 0% | 0hPa | 0V | 00:00:00 | 00:00:00 | 00:00:00 | |
| RDZBGO | 2026-09-05 23:41:24 | 41.85451 | 8.78318 | 223° | 20km/h | 8093m | 3.8m/s | 0°C | 0% | 0hPa | 0V | 00:00:00 | 00:00:00 | 00:00:00 | |
| RDZ2B | 2026-09-05 23:41:01 | 41.85569 | 8.78422 | 198° | 24km/h | 7994m | 4.2m/s | 0°C | 0% | 0hPa | 0V | 00:00:00 | 00:00:00 | 00:00:00 | |
| RDZ2B | 2026-09-05 23:40:41 | 41.85674 | 8.78509 | 214° | 27km/h | 7903m | 4.4m/s | 0°C | 0% | 0hPa | 0V | 00:00:00 | 00:00:00 | 00:00:00 | |
| RDZ2B | 2026-09-05 23:40:21 | 41.85786 | 8.78594 | 236° | 26km/h | 7817m | 3.9m/s | 0°C | 0% | 0hPa | 0V | 00:00:00 | 00:00:00 | 00:00:00 | |
| RDZ2B | 2026-09-05 23:39:57 | 41.85935 | 8.78694 | 239° | 35km/h | 7694m | 4.0m/s | 0°C | 0% | 0hPa | 0V | 00:00:00 | 00:00:00 | 00:00:00 | |
| RDZ2B | 2026-09-05 23:39:36 | 41.86044 | 8.78765 | 200° | 27km/h | 7592m | 7.0m/s | 0°C | 0% | 0hPa | 0V | 00:00:00 | 00:00:00 | 00:00:00 | |
| RDZ2B | 2026-09-05 23:39:21 | 41.86167 | 8.78806 | 199° | 33km/h | 7476m | 3.9m/s | 0°C | 0% | 0hPa | 0V | 00:00:00 | 00:00:00 | 00:00:00 | |
| RDZ2B | 2026-09-05 23:38:48 | 41.86277 | 8.78815 | 166° | 26km/h | 7348m | 4.2m/s | 0°C | 0% | 0hPa | 0V | 00:00:00 | 00:00:00 | 00:00:00 | |
| RDZ2B | 2026-09-05 23:38:26 | 41.86395 | 8.78834 | 199° | 33km/h | 7244m | 5.3m/s | 0°C | 0% | 0hPa | 0V | 00:00:00 | 00:00:00 | 00:00:00 | |
| RDZ2B | 2026-09-05 23:37:59 | 41.86570 | 8.78842 | 188° | 24km/h | 7099m | 4.3m/s | 0°C | 0% | 0hPa | 0V | 00:00:00 | 00:00:00 | 00:00:00 | |
| RDZ2B | 2026-09-05 23:37:39 | 41.86697 | 8.78867 | 178° | 9km/h | 7008m | 2.3m/s | 0°C | 0% | 0hPa | 0V | 00:00:00 | 00:00:00 | 00:00:00 | |
| RDZ2B | 2026-09-05 23:37:18 | 41.86822 | 8.78849 | 173° | 31km/h | 6906m | 6.7m/s | 0°C | 0% | 0hPa | 0V | 00:00:00 | 00:00:00 | 00:00:00 | |
| RDZ2B | 2026-09-05 23:36:57 | 41.86958 | 8.78867 | 169° | 31km/h | 6795m | 5.8m/s | 0°C | 0% | 0hPa | 0V | 00:00:00 | 00:00:00 | 00:00:00 |